<?xml version="1.0" encoding="UTF-8" standalone="no" ?>
<gpx xmlns="http://www.topografix.com/GPX/1/1" xmlns:xsi="http://www.w3.org/2001/XMLSchema-instance" xsi:schemaLocation="http://www.topografix.com/GPX/1/1 http://www.topografix.com/GPX/1/1/gpx.xsd" version="1.1" creator="VisuGPX - https://www.visugpx.com">
  <metadata>
    <name>Randonnée autour de La Neuville Chant d\'Oisel</name>
    <desc><![CDATA[Départ de l\'église de La Neuville et passage par Romilly sur Andelle]]></desc>
  </metadata>
  <wpt lat="49.37148" lon="1.23146">
    <ele>61</ele>
  </wpt>
  <wpt lat="49.37279" lon="1.23259">
    <ele>155</ele>
  </wpt>
  <trk>
    <name><![CDATA[Randonnée autour de La Neuville Chant d\'Oisel_1]]></name>
    <trkseg>
      <trkpt lat="49.37148" lon="1.23146">
        <ele>61</ele>
        <time>2012-04-24T11:48:33Z</time>
      </trkpt>
      <trkpt lat="49.37137" lon="1.23134">
        <ele>61</ele>
        <time>2012-04-24T11:48:35Z</time>
      </trkpt>
      <trkpt lat="49.37138" lon="1.23119">
        <ele>61</ele>
        <time>2012-04-24T11:48:47Z</time>
      </trkpt>
      <trkpt lat="49.37126" lon="1.23104">
        <ele>61</ele>
        <time>2012-04-24T11:48:49Z</time>
      </trkpt>
      <trkpt lat="49.37139" lon="1.23114">
        <ele>61</ele>
        <time>2012-04-24T11:48:50Z</time>
      </trkpt>
      <trkpt lat="49.37135" lon="1.23101">
        <ele>61</ele>
        <time>2012-04-24T11:48:56Z</time>
      </trkpt>
      <trkpt lat="49.37202" lon="1.23069">
        <ele>153</ele>
        <time>2012-04-24T11:49:03Z</time>
      </trkpt>
      <trkpt lat="49.37199" lon="1.23053">
        <ele>153</ele>
        <time>2012-04-24T11:49:10Z</time>
      </trkpt>
      <trkpt lat="49.37196" lon="1.2304">
        <ele>161</ele>
        <time>2012-04-24T11:49:17Z</time>
      </trkpt>
      <trkpt lat="49.37192" lon="1.23026">
        <ele>161</ele>
        <time>2012-04-24T11:49:24Z</time>
      </trkpt>
      <trkpt lat="49.37193" lon="1.23012">
        <ele>161</ele>
        <time>2012-04-24T11:49:32Z</time>
      </trkpt>
      <trkpt lat="49.3719" lon="1.22997">
        <ele>167</ele>
        <time>2012-04-24T11:49:39Z</time>
      </trkpt>
      <trkpt lat="49.37184" lon="1.22987">
        <ele>167</ele>
        <time>2012-04-24T11:49:44Z</time>
      </trkpt>
      <trkpt lat="49.37179" lon="1.22972">
        <ele>167</ele>
        <time>2012-04-24T11:49:51Z</time>
      </trkpt>
      <trkpt lat="49.37177" lon="1.22959">
        <ele>167</ele>
        <time>2012-04-24T11:49:58Z</time>
      </trkpt>
      <trkpt lat="49.37173" lon="1.22945">
        <ele>167</ele>
        <time>2012-04-24T11:50:05Z</time>
      </trkpt>
      <trkpt lat="49.37171" lon="1.22931">
        <ele>167</ele>
        <time>2012-04-24T11:50:13Z</time>
      </trkpt>
      <trkpt lat="49.37168" lon="1.22917">
        <ele>167</ele>
        <time>2012-04-24T11:50:21Z</time>
      </trkpt>
      <trkpt lat="49.37164" lon="1.22902">
        <ele>167</ele>
        <time>2012-04-24T11:50:29Z</time>
      </trkpt>
      <trkpt lat="49.37161" lon="1.22889">
        <ele>167</ele>
        <time>2012-04-24T11:50:36Z</time>
      </trkpt>
      <trkpt lat="49.37159" lon="1.22875">
        <ele>167</ele>
        <time>2012-04-24T11:50:43Z</time>
      </trkpt>
      <trkpt lat="49.37155" lon="1.22861">
        <ele>167</ele>
        <time>2012-04-24T11:50:51Z</time>
      </trkpt>
      <trkpt lat="49.3715" lon="1.22849">
        <ele>167</ele>
        <time>2012-04-24T11:50:58Z</time>
      </trkpt>
      <trkpt lat="49.37145" lon="1.22837">
        <ele>167</ele>
        <time>2012-04-24T11:51:05Z</time>
      </trkpt>
      <trkpt lat="49.37139" lon="1.22826">
        <ele>167</ele>
        <time>2012-04-24T11:51:12Z</time>
      </trkpt>
      <trkpt lat="49.37133" lon="1.22812">
        <ele>167</ele>
        <time>2012-04-24T11:51:19Z</time>
      </trkpt>
      <trkpt lat="49.37126" lon="1.228">
        <ele>167</ele>
        <time>2012-04-24T11:51:26Z</time>
      </trkpt>
      <trkpt lat="49.37122" lon="1.22786">
        <ele>167</ele>
        <time>2012-04-24T11:51:34Z</time>
      </trkpt>
      <trkpt lat="49.37118" lon="1.22774">
        <ele>167</ele>
        <time>2012-04-24T11:51:41Z</time>
      </trkpt>
      <trkpt lat="49.37112" lon="1.22761">
        <ele>167</ele>
        <time>2012-04-24T11:51:48Z</time>
      </trkpt>
      <trkpt lat="49.37106" lon="1.22749">
        <ele>167</ele>
        <time>2012-04-24T11:51:54Z</time>
      </trkpt>
      <trkpt lat="49.37099" lon="1.22737">
        <ele>167</ele>
        <time>2012-04-24T11:52:01Z</time>
      </trkpt>
      <trkpt lat="49.37095" lon="1.22724">
        <ele>167</ele>
        <time>2012-04-24T11:52:09Z</time>
      </trkpt>
      <trkpt lat="49.3709" lon="1.22711">
        <ele>167</ele>
        <time>2012-04-24T11:52:17Z</time>
      </trkpt>
      <trkpt lat="49.37085" lon="1.22699">
        <ele>162</ele>
        <time>2012-04-24T11:52:24Z</time>
      </trkpt>
      <trkpt lat="49.37079" lon="1.22687">
        <ele>162</ele>
        <time>2012-04-24T11:52:31Z</time>
      </trkpt>
      <trkpt lat="49.37074" lon="1.22676">
        <ele>162</ele>
        <time>2012-04-24T11:52:38Z</time>
      </trkpt>
      <trkpt lat="49.37069" lon="1.22664">
        <ele>162</ele>
        <time>2012-04-24T11:52:45Z</time>
      </trkpt>
      <trkpt lat="49.37062" lon="1.22652">
        <ele>162</ele>
        <time>2012-04-24T11:52:52Z</time>
      </trkpt>
      <trkpt lat="49.37056" lon="1.22642">
        <ele>162</ele>
        <time>2012-04-24T11:52:59Z</time>
      </trkpt>
      <trkpt lat="49.37054" lon="1.22628">
        <ele>162</ele>
        <time>2012-04-24T11:53:11Z</time>
      </trkpt>
      <trkpt lat="49.37047" lon="1.22618">
        <ele>162</ele>
        <time>2012-04-24T11:53:19Z</time>
      </trkpt>
      <trkpt lat="49.37039" lon="1.22608">
        <ele>162</ele>
        <time>2012-04-24T11:53:26Z</time>
      </trkpt>
      <trkpt lat="49.37032" lon="1.22599">
        <ele>155</ele>
        <time>2012-04-24T11:53:33Z</time>
      </trkpt>
      <trkpt lat="49.37025" lon="1.2259">
        <ele>155</ele>
        <time>2012-04-24T11:53:40Z</time>
      </trkpt>
      <trkpt lat="49.37018" lon="1.22581">
        <ele>155</ele>
        <time>2012-04-24T11:53:48Z</time>
      </trkpt>
      <trkpt lat="49.37011" lon="1.22572">
        <ele>155</ele>
        <time>2012-04-24T11:53:54Z</time>
      </trkpt>
      <trkpt lat="49.37002" lon="1.22561">
        <ele>155</ele>
        <time>2012-04-24T11:54:02Z</time>
      </trkpt>
      <trkpt lat="49.36996" lon="1.22549">
        <ele>155</ele>
        <time>2012-04-24T11:54:12Z</time>
      </trkpt>
      <trkpt lat="49.36991" lon="1.22537">
        <ele>162</ele>
        <time>2012-04-24T11:54:20Z</time>
      </trkpt>
      <trkpt lat="49.36983" lon="1.22528">
        <ele>162</ele>
        <time>2012-04-24T11:54:26Z</time>
      </trkpt>
      <trkpt lat="49.36974" lon="1.22519">
        <ele>162</ele>
        <time>2012-04-24T11:54:33Z</time>
      </trkpt>
      <trkpt lat="49.36966" lon="1.2251">
        <ele>162</ele>
        <time>2012-04-24T11:54:39Z</time>
      </trkpt>
      <trkpt lat="49.36959" lon="1.22499">
        <ele>162</ele>
        <time>2012-04-24T11:54:47Z</time>
      </trkpt>
      <trkpt lat="49.36951" lon="1.22491">
        <ele>162</ele>
        <time>2012-04-24T11:54:53Z</time>
      </trkpt>
      <trkpt lat="49.36942" lon="1.22481">
        <ele>157</ele>
        <time>2012-04-24T11:55:00Z</time>
      </trkpt>
      <trkpt lat="49.36935" lon="1.22471">
        <ele>157</ele>
        <time>2012-04-24T11:55:07Z</time>
      </trkpt>
      <trkpt lat="49.36928" lon="1.22461">
        <ele>157</ele>
        <time>2012-04-24T11:55:13Z</time>
      </trkpt>
      <trkpt lat="49.36922" lon="1.2245">
        <ele>157</ele>
        <time>2012-04-24T11:55:19Z</time>
      </trkpt>
      <trkpt lat="49.36917" lon="1.22439">
        <ele>157</ele>
        <time>2012-04-24T11:55:26Z</time>
      </trkpt>
      <trkpt lat="49.36911" lon="1.22427">
        <ele>157</ele>
        <time>2012-04-24T11:55:33Z</time>
      </trkpt>
      <trkpt lat="49.36906" lon="1.22415">
        <ele>157</ele>
        <time>2012-04-24T11:55:40Z</time>
      </trkpt>
      <trkpt lat="49.36899" lon="1.22404">
        <ele>157</ele>
        <time>2012-04-24T11:55:46Z</time>
      </trkpt>
      <trkpt lat="49.36894" lon="1.22393">
        <ele>157</ele>
        <time>2012-04-24T11:55:53Z</time>
      </trkpt>
      <trkpt lat="49.36888" lon="1.2238">
        <ele>157</ele>
        <time>2012-04-24T11:56:00Z</time>
      </trkpt>
      <trkpt lat="49.36884" lon="1.22368">
        <ele>157</ele>
        <time>2012-04-24T11:56:07Z</time>
      </trkpt>
      <trkpt lat="49.36879" lon="1.22354">
        <ele>157</ele>
        <time>2012-04-24T11:56:15Z</time>
      </trkpt>
      <trkpt lat="49.36873" lon="1.22343">
        <ele>157</ele>
        <time>2012-04-24T11:56:23Z</time>
      </trkpt>
      <trkpt lat="49.36867" lon="1.2233">
        <ele>157</ele>
        <time>2012-04-24T11:56:30Z</time>
      </trkpt>
      <trkpt lat="49.36862" lon="1.22316">
        <ele>157</ele>
        <time>2012-04-24T11:56:38Z</time>
      </trkpt>
      <trkpt lat="49.36857" lon="1.22303">
        <ele>157</ele>
        <time>2012-04-24T11:56:45Z</time>
      </trkpt>
      <trkpt lat="49.36852" lon="1.2229">
        <ele>151</ele>
        <time>2012-04-24T11:56:53Z</time>
      </trkpt>
      <trkpt lat="49.36847" lon="1.22275">
        <ele>151</ele>
        <time>2012-04-24T11:57:01Z</time>
      </trkpt>
      <trkpt lat="49.36843" lon="1.22262">
        <ele>151</ele>
        <time>2012-04-24T11:57:08Z</time>
      </trkpt>
      <trkpt lat="49.36839" lon="1.22249">
        <ele>151</ele>
        <time>2012-04-24T11:57:15Z</time>
      </trkpt>
      <trkpt lat="49.36835" lon="1.22236">
        <ele>151</ele>
        <time>2012-04-24T11:57:22Z</time>
      </trkpt>
      <trkpt lat="49.3683" lon="1.22222">
        <ele>151</ele>
        <time>2012-04-24T11:57:29Z</time>
      </trkpt>
      <trkpt lat="49.36826" lon="1.22208">
        <ele>151</ele>
        <time>2012-04-24T11:57:36Z</time>
      </trkpt>
      <trkpt lat="49.36823" lon="1.22193">
        <ele>151</ele>
        <time>2012-04-24T11:57:43Z</time>
      </trkpt>
      <trkpt lat="49.36819" lon="1.2218">
        <ele>151</ele>
        <time>2012-04-24T11:57:50Z</time>
      </trkpt>
      <trkpt lat="49.36815" lon="1.22167">
        <ele>151</ele>
        <time>2012-04-24T11:57:56Z</time>
      </trkpt>
      <trkpt lat="49.36811" lon="1.22154">
        <ele>151</ele>
        <time>2012-04-24T11:58:03Z</time>
      </trkpt>
      <trkpt lat="49.36806" lon="1.22139">
        <ele>151</ele>
        <time>2012-04-24T11:58:10Z</time>
      </trkpt>
      <trkpt lat="49.36802" lon="1.22127">
        <ele>151</ele>
        <time>2012-04-24T11:58:17Z</time>
      </trkpt>
      <trkpt lat="49.36796" lon="1.22113">
        <ele>151</ele>
        <time>2012-04-24T11:58:24Z</time>
      </trkpt>
      <trkpt lat="49.36791" lon="1.22098">
        <ele>151</ele>
        <time>2012-04-24T11:58:32Z</time>
      </trkpt>
      <trkpt lat="49.36786" lon="1.22085">
        <ele>151</ele>
        <time>2012-04-24T11:58:40Z</time>
      </trkpt>
      <trkpt lat="49.36784" lon="1.22071">
        <ele>151</ele>
        <time>2012-04-24T11:58:47Z</time>
      </trkpt>
      <trkpt lat="49.36779" lon="1.22059">
        <ele>151</ele>
        <time>2012-04-24T11:58:54Z</time>
      </trkpt>
      <trkpt lat="49.36772" lon="1.22046">
        <ele>151</ele>
        <time>2012-04-24T11:59:01Z</time>
      </trkpt>
      <trkpt lat="49.36767" lon="1.22034">
        <ele>151</ele>
        <time>2012-04-24T11:59:07Z</time>
      </trkpt>
      <trkpt lat="49.36761" lon="1.22022">
        <ele>151</ele>
        <time>2012-04-24T11:59:14Z</time>
      </trkpt>
      <trkpt lat="49.36756" lon="1.22008">
        <ele>151</ele>
        <time>2012-04-24T11:59:22Z</time>
      </trkpt>
      <trkpt lat="49.36751" lon="1.21997">
        <ele>151</ele>
        <time>2012-04-24T11:59:30Z</time>
      </trkpt>
      <trkpt lat="49.36744" lon="1.21986">
        <ele>151</ele>
        <time>2012-04-24T11:59:37Z</time>
      </trkpt>
      <trkpt lat="49.36735" lon="1.21978">
        <ele>151</ele>
        <time>2012-04-24T11:59:44Z</time>
      </trkpt>
      <trkpt lat="49.36728" lon="1.21969">
        <ele>151</ele>
        <time>2012-04-24T11:59:51Z</time>
      </trkpt>
      <trkpt lat="49.3672" lon="1.2196">
        <ele>151</ele>
        <time>2012-04-24T11:59:59Z</time>
      </trkpt>
      <trkpt lat="49.36713" lon="1.2195">
        <ele>151</ele>
        <time>2012-04-24T12:00:07Z</time>
      </trkpt>
      <trkpt lat="49.36705" lon="1.21942">
        <ele>151</ele>
        <time>2012-04-24T12:00:13Z</time>
      </trkpt>
      <trkpt lat="49.36698" lon="1.21932">
        <ele>151</ele>
        <time>2012-04-24T12:00:21Z</time>
      </trkpt>
      <trkpt lat="49.36691" lon="1.21922">
        <ele>151</ele>
        <time>2012-04-24T12:00:29Z</time>
      </trkpt>
      <trkpt lat="49.36683" lon="1.21914">
        <ele>151</ele>
        <time>2012-04-24T12:00:36Z</time>
      </trkpt>
      <trkpt lat="49.36675" lon="1.21905">
        <ele>151</ele>
        <time>2012-04-24T12:00:43Z</time>
      </trkpt>
      <trkpt lat="49.36667" lon="1.21896">
        <ele>151</ele>
        <time>2012-04-24T12:00:50Z</time>
      </trkpt>
      <trkpt lat="49.36659" lon="1.21888">
        <ele>151</ele>
        <time>2012-04-24T12:00:57Z</time>
      </trkpt>
      <trkpt lat="49.3665" lon="1.21879">
        <ele>151</ele>
        <time>2012-04-24T12:01:04Z</time>
      </trkpt>
      <trkpt lat="49.36642" lon="1.2187">
        <ele>146</ele>
        <time>2012-04-24T12:01:11Z</time>
      </trkpt>
      <trkpt lat="49.36634" lon="1.21861">
        <ele>146</ele>
        <time>2012-04-24T12:01:18Z</time>
      </trkpt>
      <trkpt lat="49.36626" lon="1.21852">
        <ele>146</ele>
        <time>2012-04-24T12:01:25Z</time>
      </trkpt>
      <trkpt lat="49.36618" lon="1.21842">
        <ele>146</ele>
        <time>2012-04-24T12:01:33Z</time>
      </trkpt>
      <trkpt lat="49.36611" lon="1.21833">
        <ele>146</ele>
        <time>2012-04-24T12:01:40Z</time>
      </trkpt>
      <trkpt lat="49.36604" lon="1.21824">
        <ele>146</ele>
        <time>2012-04-24T12:01:47Z</time>
      </trkpt>
      <trkpt lat="49.36597" lon="1.21815">
        <ele>146</ele>
        <time>2012-04-24T12:01:54Z</time>
      </trkpt>
      <trkpt lat="49.36589" lon="1.21806">
        <ele>146</ele>
        <time>2012-04-24T12:02:01Z</time>
      </trkpt>
      <trkpt lat="49.36581" lon="1.21798">
        <ele>146</ele>
        <time>2012-04-24T12:02:08Z</time>
      </trkpt>
      <trkpt lat="49.36572" lon="1.21791">
        <ele>146</ele>
        <time>2012-04-24T12:02:15Z</time>
      </trkpt>
      <trkpt lat="49.36563" lon="1.21783">
        <ele>146</ele>
        <time>2012-04-24T12:02:22Z</time>
      </trkpt>
      <trkpt lat="49.36555" lon="1.21777">
        <ele>146</ele>
        <time>2012-04-24T12:02:29Z</time>
      </trkpt>
      <trkpt lat="49.36546" lon="1.21768">
        <ele>146</ele>
        <time>2012-04-24T12:02:37Z</time>
      </trkpt>
      <trkpt lat="49.36537" lon="1.21762">
        <ele>146</ele>
        <time>2012-04-24T12:02:44Z</time>
      </trkpt>
      <trkpt lat="49.36528" lon="1.21755">
        <ele>146</ele>
        <time>2012-04-24T12:02:51Z</time>
      </trkpt>
      <trkpt lat="49.36519" lon="1.21749">
        <ele>146</ele>
        <time>2012-04-24T12:02:58Z</time>
      </trkpt>
      <trkpt lat="49.3651" lon="1.21742">
        <ele>146</ele>
        <time>2012-04-24T12:03:05Z</time>
      </trkpt>
      <trkpt lat="49.365" lon="1.21736">
        <ele>146</ele>
        <time>2012-04-24T12:03:12Z</time>
      </trkpt>
      <trkpt lat="49.36491" lon="1.21732">
        <ele>146</ele>
        <time>2012-04-24T12:03:19Z</time>
      </trkpt>
      <trkpt lat="49.36482" lon="1.21726">
        <ele>146</ele>
        <time>2012-04-24T12:03:26Z</time>
      </trkpt>
      <trkpt lat="49.36473" lon="1.21721">
        <ele>146</ele>
        <time>2012-04-24T12:03:33Z</time>
      </trkpt>
      <trkpt lat="49.36464" lon="1.21715">
        <ele>146</ele>
        <time>2012-04-24T12:03:40Z</time>
      </trkpt>
      <trkpt lat="49.36455" lon="1.2171">
        <ele>146</ele>
        <time>2012-04-24T12:03:47Z</time>
      </trkpt>
      <trkpt lat="49.36446" lon="1.21705">
        <ele>146</ele>
        <time>2012-04-24T12:03:55Z</time>
      </trkpt>
      <trkpt lat="49.36437" lon="1.21698">
        <ele>146</ele>
        <time>2012-04-24T12:04:02Z</time>
      </trkpt>
      <trkpt lat="49.36428" lon="1.21693">
        <ele>146</ele>
        <time>2012-04-24T12:04:09Z</time>
      </trkpt>
      <trkpt lat="49.3642" lon="1.21686">
        <ele>146</ele>
        <time>2012-04-24T12:04:16Z</time>
      </trkpt>
      <trkpt lat="49.36411" lon="1.2168">
        <ele>141</ele>
        <time>2012-04-24T12:04:23Z</time>
      </trkpt>
      <trkpt lat="49.36403" lon="1.21672">
        <ele>141</ele>
        <time>2012-04-24T12:04:30Z</time>
      </trkpt>
      <trkpt lat="49.36394" lon="1.21665">
        <ele>141</ele>
        <time>2012-04-24T12:04:37Z</time>
      </trkpt>
      <trkpt lat="49.36385" lon="1.21658">
        <ele>141</ele>
        <time>2012-04-24T12:04:44Z</time>
      </trkpt>
      <trkpt lat="49.36376" lon="1.2165">
        <ele>141</ele>
        <time>2012-04-24T12:04:51Z</time>
      </trkpt>
      <trkpt lat="49.36368" lon="1.21643">
        <ele>141</ele>
        <time>2012-04-24T12:04:58Z</time>
      </trkpt>
      <trkpt lat="49.36359" lon="1.21636">
        <ele>141</ele>
        <time>2012-04-24T12:05:05Z</time>
      </trkpt>
      <trkpt lat="49.36351" lon="1.21627">
        <ele>141</ele>
        <time>2012-04-24T12:05:12Z</time>
      </trkpt>
      <trkpt lat="49.36342" lon="1.2162">
        <ele>141</ele>
        <time>2012-04-24T12:05:19Z</time>
      </trkpt>
      <trkpt lat="49.36334" lon="1.21613">
        <ele>141</ele>
        <time>2012-04-24T12:05:26Z</time>
      </trkpt>
      <trkpt lat="49.36325" lon="1.21606">
        <ele>141</ele>
        <time>2012-04-24T12:05:33Z</time>
      </trkpt>
      <trkpt lat="49.36316" lon="1.21599">
        <ele>141</ele>
        <time>2012-04-24T12:05:40Z</time>
      </trkpt>
      <trkpt lat="49.36308" lon="1.21592">
        <ele>141</ele>
        <time>2012-04-24T12:05:47Z</time>
      </trkpt>
      <trkpt lat="49.363" lon="1.21584">
        <ele>141</ele>
        <time>2012-04-24T12:05:54Z</time>
      </trkpt>
      <trkpt lat="49.36291" lon="1.21578">
        <ele>141</ele>
        <time>2012-04-24T12:06:01Z</time>
      </trkpt>
      <trkpt lat="49.36282" lon="1.21572">
        <ele>141</ele>
        <time>2012-04-24T12:06:08Z</time>
      </trkpt>
      <trkpt lat="49.36274" lon="1.21565">
        <ele>141</ele>
        <time>2012-04-24T12:06:15Z</time>
      </trkpt>
      <trkpt lat="49.36265" lon="1.2156">
        <ele>141</ele>
        <time>2012-04-24T12:06:22Z</time>
      </trkpt>
      <trkpt lat="49.36257" lon="1.21554">
        <ele>141</ele>
        <time>2012-04-24T12:06:29Z</time>
      </trkpt>
      <trkpt lat="49.36248" lon="1.21548">
        <ele>141</ele>
        <time>2012-04-24T12:06:36Z</time>
      </trkpt>
      <trkpt lat="49.36238" lon="1.21542">
        <ele>141</ele>
        <time>2012-04-24T12:06:44Z</time>
      </trkpt>
      <trkpt lat="49.3623" lon="1.21536">
        <ele>141</ele>
        <time>2012-04-24T12:06:51Z</time>
      </trkpt>
      <trkpt lat="49.3622" lon="1.2153">
        <ele>141</ele>
        <time>2012-04-24T12:06:58Z</time>
      </trkpt>
      <trkpt lat="49.36211" lon="1.21525">
        <ele>141</ele>
        <time>2012-04-24T12:07:05Z</time>
      </trkpt>
      <trkpt lat="49.36203" lon="1.21519">
        <ele>141</ele>
        <time>2012-04-24T12:07:12Z</time>
      </trkpt>
      <trkpt lat="49.36194" lon="1.21512">
        <ele>141</ele>
        <time>2012-04-24T12:07:19Z</time>
      </trkpt>
      <trkpt lat="49.36185" lon="1.21507">
        <ele>141</ele>
        <time>2012-04-24T12:07:26Z</time>
      </trkpt>
      <trkpt lat="49.36176" lon="1.21501">
        <ele>141</ele>
        <time>2012-04-24T12:07:33Z</time>
      </trkpt>
      <trkpt lat="49.36167" lon="1.21494">
        <ele>141</ele>
        <time>2012-04-24T12:07:40Z</time>
      </trkpt>
      <trkpt lat="49.36159" lon="1.21488">
        <ele>141</ele>
        <time>2012-04-24T12:07:47Z</time>
      </trkpt>
      <trkpt lat="49.36149" lon="1.21483">
        <ele>141</ele>
        <time>2012-04-24T12:07:54Z</time>
      </trkpt>
      <trkpt lat="49.3614" lon="1.21475">
        <ele>141</ele>
        <time>2012-04-24T12:08:02Z</time>
      </trkpt>
      <trkpt lat="49.36132" lon="1.21468">
        <ele>141</ele>
        <time>2012-04-24T12:08:10Z</time>
      </trkpt>
      <trkpt lat="49.36124" lon="1.21462">
        <ele>141</ele>
        <time>2012-04-24T12:08:55Z</time>
      </trkpt>
      <trkpt lat="49.36115" lon="1.21458">
        <ele>141</ele>
        <time>2012-04-24T12:09:03Z</time>
      </trkpt>
      <trkpt lat="49.36105" lon="1.21454">
        <ele>141</ele>
        <time>2012-04-24T12:09:11Z</time>
      </trkpt>
      <trkpt lat="49.36095" lon="1.2145">
        <ele>141</ele>
        <time>2012-04-24T12:09:19Z</time>
      </trkpt>
      <trkpt lat="49.36085" lon="1.21448">
        <ele>141</ele>
        <time>2012-04-24T12:09:27Z</time>
      </trkpt>
      <trkpt lat="49.36075" lon="1.21448">
        <ele>141</ele>
        <time>2012-04-24T12:09:35Z</time>
      </trkpt>
      <trkpt lat="49.36065" lon="1.21449">
        <ele>141</ele>
        <time>2012-04-24T12:09:42Z</time>
      </trkpt>
      <trkpt lat="49.36055" lon="1.2145">
        <ele>141</ele>
        <time>2012-04-24T12:09:50Z</time>
      </trkpt>
      <trkpt lat="49.36046" lon="1.21452">
        <ele>141</ele>
        <time>2012-04-24T12:09:57Z</time>
      </trkpt>
      <trkpt lat="49.36035" lon="1.21454">
        <ele>141</ele>
        <time>2012-04-24T12:10:05Z</time>
      </trkpt>
      <trkpt lat="49.36026" lon="1.21456">
        <ele>141</ele>
        <time>2012-04-24T12:10:12Z</time>
      </trkpt>
      <trkpt lat="49.36017" lon="1.21459">
        <ele>141</ele>
        <time>2012-04-24T12:10:20Z</time>
      </trkpt>
      <trkpt lat="49.36007" lon="1.21461">
        <ele>141</ele>
        <time>2012-04-24T12:10:28Z</time>
      </trkpt>
      <trkpt lat="49.35996" lon="1.21464">
        <ele>141</ele>
        <time>2012-04-24T12:10:36Z</time>
      </trkpt>
      <trkpt lat="49.35986" lon="1.21467">
        <ele>141</ele>
        <time>2012-04-24T12:10:44Z</time>
      </trkpt>
      <trkpt lat="49.35976" lon="1.21468">
        <ele>141</ele>
        <time>2012-04-24T12:10:52Z</time>
      </trkpt>
      <trkpt lat="49.35966" lon="1.21471">
        <ele>141</ele>
        <time>2012-04-24T12:11:00Z</time>
      </trkpt>
      <trkpt lat="49.35957" lon="1.21473">
        <ele>141</ele>
        <time>2012-04-24T12:11:07Z</time>
      </trkpt>
      <trkpt lat="49.35947" lon="1.21471">
        <ele>148</ele>
        <time>2012-04-24T12:11:16Z</time>
      </trkpt>
      <trkpt lat="49.35938" lon="1.21471">
        <ele>148</ele>
        <time>2012-04-24T12:11:25Z</time>
      </trkpt>
      <trkpt lat="49.35927" lon="1.21473">
        <ele>148</ele>
        <time>2012-04-24T12:11:33Z</time>
      </trkpt>
      <trkpt lat="49.35918" lon="1.21475">
        <ele>148</ele>
        <time>2012-04-24T12:11:41Z</time>
      </trkpt>
      <trkpt lat="49.35908" lon="1.21477">
        <ele>148</ele>
        <time>2012-04-24T12:11:49Z</time>
      </trkpt>
      <trkpt lat="49.35898" lon="1.21479">
        <ele>148</ele>
        <time>2012-04-24T12:11:56Z</time>
      </trkpt>
      <trkpt lat="49.35888" lon="1.21481">
        <ele>148</ele>
        <time>2012-04-24T12:12:03Z</time>
      </trkpt>
      <trkpt lat="49.35877" lon="1.21483">
        <ele>148</ele>
        <time>2012-04-24T12:12:10Z</time>
      </trkpt>
      <trkpt lat="49.35868" lon="1.21486">
        <ele>143</ele>
        <time>2012-04-24T12:12:17Z</time>
      </trkpt>
      <trkpt lat="49.35858" lon="1.21487">
        <ele>143</ele>
        <time>2012-04-24T12:12:24Z</time>
      </trkpt>
      <trkpt lat="49.35848" lon="1.21491">
        <ele>143</ele>
        <time>2012-04-24T12:12:32Z</time>
      </trkpt>
      <trkpt lat="49.35839" lon="1.21494">
        <ele>143</ele>
        <time>2012-04-24T12:12:39Z</time>
      </trkpt>
      <trkpt lat="49.3583" lon="1.21497">
        <ele>143</ele>
        <time>2012-04-24T12:12:46Z</time>
      </trkpt>
      <trkpt lat="49.35821" lon="1.21501">
        <ele>143</ele>
        <time>2012-04-24T12:12:53Z</time>
      </trkpt>
      <trkpt lat="49.35811" lon="1.21504">
        <ele>143</ele>
        <time>2012-04-24T12:13:00Z</time>
      </trkpt>
      <trkpt lat="49.35802" lon="1.21509">
        <ele>143</ele>
        <time>2012-04-24T12:13:07Z</time>
      </trkpt>
      <trkpt lat="49.35793" lon="1.21512">
        <ele>143</ele>
        <time>2012-04-24T12:13:14Z</time>
      </trkpt>
      <trkpt lat="49.35784" lon="1.21516">
        <ele>143</ele>
        <time>2012-04-24T12:13:21Z</time>
      </trkpt>
      <trkpt lat="49.35776" lon="1.2152">
        <ele>143</ele>
        <time>2012-04-24T12:13:28Z</time>
      </trkpt>
      <trkpt lat="49.35766" lon="1.21523">
        <ele>143</ele>
        <time>2012-04-24T12:13:35Z</time>
      </trkpt>
      <trkpt lat="49.35757" lon="1.21527">
        <ele>143</ele>
        <time>2012-04-24T12:13:42Z</time>
      </trkpt>
      <trkpt lat="49.35749" lon="1.21531">
        <ele>137</ele>
        <time>2012-04-24T12:13:49Z</time>
      </trkpt>
      <trkpt lat="49.3574" lon="1.21535">
        <ele>137</ele>
        <time>2012-04-24T12:13:56Z</time>
      </trkpt>
      <trkpt lat="49.35731" lon="1.21539">
        <ele>137</ele>
        <time>2012-04-24T12:14:03Z</time>
      </trkpt>
      <trkpt lat="49.35722" lon="1.21542">
        <ele>137</ele>
        <time>2012-04-24T12:14:10Z</time>
      </trkpt>
      <trkpt lat="49.35713" lon="1.21547">
        <ele>137</ele>
        <time>2012-04-24T12:14:17Z</time>
      </trkpt>
      <trkpt lat="49.35705" lon="1.2155">
        <ele>137</ele>
        <time>2012-04-24T12:14:24Z</time>
      </trkpt>
      <trkpt lat="49.35696" lon="1.21554">
        <ele>137</ele>
        <time>2012-04-24T12:14:31Z</time>
      </trkpt>
      <trkpt lat="49.35686" lon="1.21556">
        <ele>137</ele>
        <time>2012-04-24T12:14:38Z</time>
      </trkpt>
      <trkpt lat="49.35677" lon="1.2156">
        <ele>137</ele>
        <time>2012-04-24T12:14:45Z</time>
      </trkpt>
      <trkpt lat="49.35667" lon="1.21563">
        <ele>137</ele>
        <time>2012-04-24T12:14:53Z</time>
      </trkpt>
      <trkpt lat="49.35657" lon="1.21566">
        <ele>137</ele>
        <time>2012-04-24T12:15:01Z</time>
      </trkpt>
      <trkpt lat="49.35648" lon="1.21569">
        <ele>137</ele>
        <time>2012-04-24T12:15:08Z</time>
      </trkpt>
      <trkpt lat="49.35638" lon="1.21572">
        <ele>137</ele>
        <time>2012-04-24T12:15:16Z</time>
      </trkpt>
      <trkpt lat="49.35628" lon="1.21574">
        <ele>137</ele>
        <time>2012-04-24T12:15:24Z</time>
      </trkpt>
      <trkpt lat="49.35618" lon="1.21575">
        <ele>137</ele>
        <time>2012-04-24T12:15:32Z</time>
      </trkpt>
      <trkpt lat="49.35608" lon="1.21577">
        <ele>137</ele>
        <time>2012-04-24T12:15:40Z</time>
      </trkpt>
      <trkpt lat="49.35598" lon="1.21578">
        <ele>137</ele>
        <time>2012-04-24T12:15:48Z</time>
      </trkpt>
      <trkpt lat="49.35589" lon="1.21578">
        <ele>137</ele>
        <time>2012-04-24T12:15:56Z</time>
      </trkpt>
      <trkpt lat="49.35579" lon="1.21578">
        <ele>137</ele>
        <time>2012-04-24T12:16:04Z</time>
      </trkpt>
      <trkpt lat="49.35569" lon="1.21578">
        <ele>137</ele>
        <time>2012-04-24T12:16:12Z</time>
      </trkpt>
      <trkpt lat="49.35559" lon="1.21578">
        <ele>137</ele>
        <time>2012-04-24T12:16:20Z</time>
      </trkpt>
      <trkpt lat="49.3555" lon="1.21578">
        <ele>137</ele>
        <time>2012-04-24T12:16:27Z</time>
      </trkpt>
      <trkpt lat="49.35539" lon="1.21578">
        <ele>137</ele>
        <time>2012-04-24T12:16:35Z</time>
      </trkpt>
      <trkpt lat="49.3553" lon="1.21577">
        <ele>137</ele>
        <time>2012-04-24T12:16:42Z</time>
      </trkpt>
      <trkpt lat="49.3552" lon="1.21577">
        <ele>137</ele>
        <time>2012-04-24T12:16:50Z</time>
      </trkpt>
      <trkpt lat="49.3551" lon="1.21575">
        <ele>137</ele>
        <time>2012-04-24T12:17:02Z</time>
      </trkpt>
      <trkpt lat="49.355" lon="1.21576">
        <ele>137</ele>
        <time>2012-04-24T12:17:14Z</time>
      </trkpt>
      <trkpt lat="49.35491" lon="1.21576">
        <ele>137</ele>
        <time>2012-04-24T12:17:22Z</time>
      </trkpt>
      <trkpt lat="49.35481" lon="1.21576">
        <ele>137</ele>
        <time>2012-04-24T12:17:30Z</time>
      </trkpt>
      <trkpt lat="49.35471" lon="1.21577">
        <ele>137</ele>
        <time>2012-04-24T12:17:38Z</time>
      </trkpt>
      <trkpt lat="49.35461" lon="1.21577">
        <ele>137</ele>
        <time>2012-04-24T12:17:46Z</time>
      </trkpt>
      <trkpt lat="49.3545" lon="1.21577">
        <ele>137</ele>
        <time>2012-04-24T12:17:54Z</time>
      </trkpt>
      <trkpt lat="49.3544" lon="1.21577">
        <ele>137</ele>
        <time>2012-04-24T12:18:02Z</time>
      </trkpt>
      <trkpt lat="49.3543" lon="1.21576">
        <ele>137</ele>
        <time>2012-04-24T12:18:09Z</time>
      </trkpt>
      <trkpt lat="49.35421" lon="1.21577">
        <ele>131</ele>
        <time>2012-04-24T12:18:16Z</time>
      </trkpt>
      <trkpt lat="49.35411" lon="1.21576">
        <ele>131</ele>
        <time>2012-04-24T12:18:24Z</time>
      </trkpt>
      <trkpt lat="49.35401" lon="1.21576">
        <ele>131</ele>
        <time>2012-04-24T12:18:32Z</time>
      </trkpt>
      <trkpt lat="49.35391" lon="1.21575">
        <ele>131</ele>
        <time>2012-04-24T12:18:40Z</time>
      </trkpt>
      <trkpt lat="49.35381" lon="1.21574">
        <ele>131</ele>
        <time>2012-04-24T12:18:48Z</time>
      </trkpt>
      <trkpt lat="49.35371" lon="1.21573">
        <ele>131</ele>
        <time>2012-04-24T12:18:56Z</time>
      </trkpt>
      <trkpt lat="49.35361" lon="1.21571">
        <ele>131</ele>
        <time>2012-04-24T12:19:04Z</time>
      </trkpt>
      <trkpt lat="49.35351" lon="1.21569">
        <ele>131</ele>
        <time>2012-04-24T12:19:12Z</time>
      </trkpt>
      <trkpt lat="49.35341" lon="1.21568">
        <ele>131</ele>
        <time>2012-04-24T12:19:20Z</time>
      </trkpt>
      <trkpt lat="49.35331" lon="1.21569">
        <ele>131</ele>
        <time>2012-04-24T12:19:28Z</time>
      </trkpt>
      <trkpt lat="49.35322" lon="1.21568">
        <ele>131</ele>
        <time>2012-04-24T12:19:36Z</time>
      </trkpt>
      <trkpt lat="49.35312" lon="1.21565">
        <ele>131</ele>
        <time>2012-04-24T12:19:45Z</time>
      </trkpt>
      <trkpt lat="49.35303" lon="1.21564">
        <ele>131</ele>
        <time>2012-04-24T12:19:53Z</time>
      </trkpt>
      <trkpt lat="49.35293" lon="1.21564">
        <ele>131</ele>
        <time>2012-04-24T12:20:01Z</time>
      </trkpt>
      <trkpt lat="49.35283" lon="1.21561">
        <ele>131</ele>
        <time>2012-04-24T12:20:09Z</time>
      </trkpt>
      <trkpt lat="49.35273" lon="1.2156">
        <ele>131</ele>
        <time>2012-04-24T12:20:17Z</time>
      </trkpt>
      <trkpt lat="49.35263" lon="1.21559">
        <ele>131</ele>
        <time>2012-04-24T12:20:25Z</time>
      </trkpt>
      <trkpt lat="49.35253" lon="1.21558">
        <ele>131</ele>
        <time>2012-04-24T12:20:33Z</time>
      </trkpt>
      <trkpt lat="49.35243" lon="1.21556">
        <ele>131</ele>
        <time>2012-04-24T12:20:41Z</time>
      </trkpt>
      <trkpt lat="49.35234" lon="1.21556">
        <ele>131</ele>
        <time>2012-04-24T12:20:48Z</time>
      </trkpt>
      <trkpt lat="49.35225" lon="1.21556">
        <ele>131</ele>
        <time>2012-04-24T12:20:56Z</time>
      </trkpt>
      <trkpt lat="49.35214" lon="1.21553">
        <ele>131</ele>
        <time>2012-04-24T12:21:04Z</time>
      </trkpt>
      <trkpt lat="49.35204" lon="1.21552">
        <ele>131</ele>
        <time>2012-04-24T12:21:13Z</time>
      </trkpt>
      <trkpt lat="49.35195" lon="1.21547">
        <ele>131</ele>
        <time>2012-04-24T12:21:21Z</time>
      </trkpt>
      <trkpt lat="49.35186" lon="1.21545">
        <ele>131</ele>
        <time>2012-04-24T12:21:29Z</time>
      </trkpt>
      <trkpt lat="49.35176" lon="1.21543">
        <ele>131</ele>
        <time>2012-04-24T12:21:37Z</time>
      </trkpt>
      <trkpt lat="49.35167" lon="1.2154">
        <ele>131</ele>
        <time>2012-04-24T12:21:45Z</time>
      </trkpt>
      <trkpt lat="49.35158" lon="1.21538">
        <ele>131</ele>
        <time>2012-04-24T12:21:56Z</time>
      </trkpt>
      <trkpt lat="49.35149" lon="1.21533">
        <ele>131</ele>
        <time>2012-04-24T12:22:06Z</time>
      </trkpt>
      <trkpt lat="49.35139" lon="1.21531">
        <ele>131</ele>
        <time>2012-04-24T12:22:15Z</time>
      </trkpt>
      <trkpt lat="49.35129" lon="1.21534">
        <ele>131</ele>
        <time>2012-04-24T12:22:30Z</time>
      </trkpt>
      <trkpt lat="49.3512" lon="1.21531">
        <ele>131</ele>
        <time>2012-04-24T12:22:54Z</time>
      </trkpt>
      <trkpt lat="49.35116" lon="1.21519">
        <ele>131</ele>
        <time>2012-04-24T12:25:34Z</time>
      </trkpt>
      <trkpt lat="49.35108" lon="1.2151">
        <ele>131</ele>
        <time>2012-04-24T12:25:45Z</time>
      </trkpt>
      <trkpt lat="49.351" lon="1.21503">
        <ele>131</ele>
        <time>2012-04-24T12:25:56Z</time>
      </trkpt>
      <trkpt lat="49.35092" lon="1.21495">
        <ele>140</ele>
        <time>2012-04-24T12:26:06Z</time>
      </trkpt>
      <trkpt lat="49.35084" lon="1.21488">
        <ele>140</ele>
        <time>2012-04-24T12:26:15Z</time>
      </trkpt>
      <trkpt lat="49.35076" lon="1.21478">
        <ele>140</ele>
        <time>2012-04-24T12:26:24Z</time>
      </trkpt>
      <trkpt lat="49.3507" lon="1.21468">
        <ele>140</ele>
        <time>2012-04-24T12:26:34Z</time>
      </trkpt>
      <trkpt lat="49.35062" lon="1.21457">
        <ele>140</ele>
        <time>2012-04-24T12:26:40Z</time>
      </trkpt>
      <trkpt lat="49.35055" lon="1.21448">
        <ele>147</ele>
        <time>2012-04-24T12:26:48Z</time>
      </trkpt>
      <trkpt lat="49.35048" lon="1.21434">
        <ele>147</ele>
        <time>2012-04-24T12:26:58Z</time>
      </trkpt>
      <trkpt lat="49.35043" lon="1.21423">
        <ele>147</ele>
        <time>2012-04-24T12:27:04Z</time>
      </trkpt>
      <trkpt lat="49.35035" lon="1.21415">
        <ele>147</ele>
        <time>2012-04-24T12:27:12Z</time>
      </trkpt>
      <trkpt lat="49.35026" lon="1.21409">
        <ele>147</ele>
        <time>2012-04-24T12:27:22Z</time>
      </trkpt>
      <trkpt lat="49.35018" lon="1.21401">
        <ele>147</ele>
        <time>2012-04-24T12:27:31Z</time>
      </trkpt>
      <trkpt lat="49.3501" lon="1.2139">
        <ele>154</ele>
        <time>2012-04-24T12:27:41Z</time>
      </trkpt>
      <trkpt lat="49.35002" lon="1.21381">
        <ele>154</ele>
        <time>2012-04-24T12:27:48Z</time>
      </trkpt>
      <trkpt lat="49.34994" lon="1.21372">
        <ele>154</ele>
        <time>2012-04-24T12:27:56Z</time>
      </trkpt>
      <trkpt lat="49.34987" lon="1.21361">
        <ele>154</ele>
        <time>2012-04-24T12:28:04Z</time>
      </trkpt>
      <trkpt lat="49.34981" lon="1.21349">
        <ele>154</ele>
        <time>2012-04-24T12:28:13Z</time>
      </trkpt>
      <trkpt lat="49.34972" lon="1.21348">
        <ele>147</ele>
        <time>2012-04-24T12:28:22Z</time>
      </trkpt>
      <trkpt lat="49.34962" lon="1.21346">
        <ele>147</ele>
        <time>2012-04-24T12:28:31Z</time>
      </trkpt>
      <trkpt lat="49.34952" lon="1.21343">
        <ele>137</ele>
        <time>2012-04-24T12:28:42Z</time>
      </trkpt>
      <trkpt lat="49.34943" lon="1.21339">
        <ele>137</ele>
        <time>2012-04-24T12:28:49Z</time>
      </trkpt>
      <trkpt lat="49.34933" lon="1.21333">
        <ele>137</ele>
        <time>2012-04-24T12:28:56Z</time>
      </trkpt>
      <trkpt lat="49.34924" lon="1.21327">
        <ele>137</ele>
        <time>2012-04-24T12:29:05Z</time>
      </trkpt>
      <trkpt lat="49.34915" lon="1.21325">
        <ele>137</ele>
        <time>2012-04-24T12:29:14Z</time>
      </trkpt>
      <trkpt lat="49.34905" lon="1.21325">
        <ele>137</ele>
        <time>2012-04-24T12:29:21Z</time>
      </trkpt>
      <trkpt lat="49.34896" lon="1.21329">
        <ele>137</ele>
        <time>2012-04-24T12:29:30Z</time>
      </trkpt>
      <trkpt lat="49.34886" lon="1.2133">
        <ele>137</ele>
        <time>2012-04-24T12:29:39Z</time>
      </trkpt>
      <trkpt lat="49.34877" lon="1.2133">
        <ele>137</ele>
        <time>2012-04-24T12:29:47Z</time>
      </trkpt>
      <trkpt lat="49.34867" lon="1.2133">
        <ele>144</ele>
        <time>2012-04-24T12:29:54Z</time>
      </trkpt>
      <trkpt lat="49.34858" lon="1.21333">
        <ele>144</ele>
        <time>2012-04-24T12:30:01Z</time>
      </trkpt>
      <trkpt lat="49.34848" lon="1.21334">
        <ele>144</ele>
        <time>2012-04-24T12:30:08Z</time>
      </trkpt>
      <trkpt lat="49.34838" lon="1.21336">
        <ele>144</ele>
        <time>2012-04-24T12:30:17Z</time>
      </trkpt>
      <trkpt lat="49.34828" lon="1.21338">
        <ele>144</ele>
        <time>2012-04-24T12:30:24Z</time>
      </trkpt>
      <trkpt lat="49.34819" lon="1.21338">
        <ele>144</ele>
        <time>2012-04-24T12:30:32Z</time>
      </trkpt>
      <trkpt lat="49.34809" lon="1.21337">
        <ele>144</ele>
        <time>2012-04-24T12:30:40Z</time>
      </trkpt>
      <trkpt lat="49.348" lon="1.21342">
        <ele>144</ele>
        <time>2012-04-24T12:30:46Z</time>
      </trkpt>
      <trkpt lat="49.34791" lon="1.21345">
        <ele>144</ele>
        <time>2012-04-24T12:30:53Z</time>
      </trkpt>
      <trkpt lat="49.34783" lon="1.21351">
        <ele>144</ele>
        <time>2012-04-24T12:30:59Z</time>
      </trkpt>
      <trkpt lat="49.34774" lon="1.2136">
        <ele>133</ele>
        <time>2012-04-24T12:31:06Z</time>
      </trkpt>
      <trkpt lat="49.34766" lon="1.2137">
        <ele>133</ele>
        <time>2012-04-24T12:31:16Z</time>
      </trkpt>
      <trkpt lat="49.34759" lon="1.21379">
        <ele>133</ele>
        <time>2012-04-24T12:31:25Z</time>
      </trkpt>
      <trkpt lat="49.34748" lon="1.21379">
        <ele>126</ele>
        <time>2012-04-24T12:31:34Z</time>
      </trkpt>
      <trkpt lat="49.34739" lon="1.21375">
        <ele>126</ele>
        <time>2012-04-24T12:31:42Z</time>
      </trkpt>
      <trkpt lat="49.3473" lon="1.21369">
        <ele>126</ele>
        <time>2012-04-24T12:31:49Z</time>
      </trkpt>
      <trkpt lat="49.34723" lon="1.21361">
        <ele>126</ele>
        <time>2012-04-24T12:31:58Z</time>
      </trkpt>
      <trkpt lat="49.34715" lon="1.21351">
        <ele>126</ele>
        <time>2012-04-24T12:32:06Z</time>
      </trkpt>
      <trkpt lat="49.34706" lon="1.21344">
        <ele>137</ele>
        <time>2012-04-24T12:32:14Z</time>
      </trkpt>
      <trkpt lat="49.34699" lon="1.21335">
        <ele>137</ele>
        <time>2012-04-24T12:32:24Z</time>
      </trkpt>
      <trkpt lat="49.34689" lon="1.2133">
        <ele>137</ele>
        <time>2012-04-24T12:32:33Z</time>
      </trkpt>
      <trkpt lat="49.3468" lon="1.21328">
        <ele>137</ele>
        <time>2012-04-24T12:32:43Z</time>
      </trkpt>
      <trkpt lat="49.3467" lon="1.21328">
        <ele>137</ele>
        <time>2012-04-24T12:32:55Z</time>
      </trkpt>
      <trkpt lat="49.34662" lon="1.21334">
        <ele>137</ele>
        <time>2012-04-24T12:33:02Z</time>
      </trkpt>
      <trkpt lat="49.34653" lon="1.21338">
        <ele>137</ele>
        <time>2012-04-24T12:33:12Z</time>
      </trkpt>
      <trkpt lat="49.34643" lon="1.21341">
        <ele>137</ele>
        <time>2012-04-24T12:33:21Z</time>
      </trkpt>
      <trkpt lat="49.34635" lon="1.21345">
        <ele>137</ele>
        <time>2012-04-24T12:33:32Z</time>
      </trkpt>
      <trkpt lat="49.34626" lon="1.21353">
        <ele>137</ele>
        <time>2012-04-24T12:33:42Z</time>
      </trkpt>
      <trkpt lat="49.34618" lon="1.21361">
        <ele>137</ele>
        <time>2012-04-24T12:33:52Z</time>
      </trkpt>
      <trkpt lat="49.34609" lon="1.21367">
        <ele>129</ele>
        <time>2012-04-24T12:34:01Z</time>
      </trkpt>
      <trkpt lat="49.34602" lon="1.21375">
        <ele>129</ele>
        <time>2012-04-24T12:34:11Z</time>
      </trkpt>
      <trkpt lat="49.34594" lon="1.21385">
        <ele>129</ele>
        <time>2012-04-24T12:34:18Z</time>
      </trkpt>
      <trkpt lat="49.34588" lon="1.21397">
        <ele>129</ele>
        <time>2012-04-24T12:34:26Z</time>
      </trkpt>
      <trkpt lat="49.3458" lon="1.21404">
        <ele>134</ele>
        <time>2012-04-24T12:34:36Z</time>
      </trkpt>
      <trkpt lat="49.34572" lon="1.21413">
        <ele>134</ele>
        <time>2012-04-24T12:34:45Z</time>
      </trkpt>
      <trkpt lat="49.34564" lon="1.2142">
        <ele>134</ele>
        <time>2012-04-24T12:34:53Z</time>
      </trkpt>
      <trkpt lat="49.34557" lon="1.21429">
        <ele>134</ele>
        <time>2012-04-24T12:35:00Z</time>
      </trkpt>
      <trkpt lat="49.3455" lon="1.21439">
        <ele>134</ele>
        <time>2012-04-24T12:35:08Z</time>
      </trkpt>
      <trkpt lat="49.34541" lon="1.21446">
        <ele>134</ele>
        <time>2012-04-24T12:35:16Z</time>
      </trkpt>
      <trkpt lat="49.34533" lon="1.21456">
        <ele>134</ele>
        <time>2012-04-24T12:35:22Z</time>
      </trkpt>
      <trkpt lat="49.34525" lon="1.21464">
        <ele>134</ele>
        <time>2012-04-24T12:35:31Z</time>
      </trkpt>
      <trkpt lat="49.34516" lon="1.21472">
        <ele>134</ele>
        <time>2012-04-24T12:35:43Z</time>
      </trkpt>
      <trkpt lat="49.34507" lon="1.2148">
        <ele>134</ele>
        <time>2012-04-24T12:35:52Z</time>
      </trkpt>
      <trkpt lat="49.34499" lon="1.21485">
        <ele>134</ele>
        <time>2012-04-24T12:36:02Z</time>
      </trkpt>
      <trkpt lat="49.3449" lon="1.2148">
        <ele>134</ele>
        <time>2012-04-24T12:36:13Z</time>
      </trkpt>
      <trkpt lat="49.34482" lon="1.21474">
        <ele>134</ele>
        <time>2012-04-24T12:36:22Z</time>
      </trkpt>
      <trkpt lat="49.34473" lon="1.21468">
        <ele>134</ele>
        <time>2012-04-24T12:36:29Z</time>
      </trkpt>
      <trkpt lat="49.34467" lon="1.21458">
        <ele>134</ele>
        <time>2012-04-24T12:36:37Z</time>
      </trkpt>
      <trkpt lat="49.3446" lon="1.21448">
        <ele>134</ele>
        <time>2012-04-24T12:36:46Z</time>
      </trkpt>
      <trkpt lat="49.3445" lon="1.21447">
        <ele>134</ele>
        <time>2012-04-24T12:36:58Z</time>
      </trkpt>
      <trkpt lat="49.3444" lon="1.2145">
        <ele>134</ele>
        <time>2012-04-24T12:37:06Z</time>
      </trkpt>
      <trkpt lat="49.34433" lon="1.21459">
        <ele>134</ele>
        <time>2012-04-24T12:37:12Z</time>
      </trkpt>
      <trkpt lat="49.34426" lon="1.21469">
        <ele>134</ele>
        <time>2012-04-24T12:37:21Z</time>
      </trkpt>
      <trkpt lat="49.34419" lon="1.2148">
        <ele>134</ele>
        <time>2012-04-24T12:37:32Z</time>
      </trkpt>
      <trkpt lat="49.34412" lon="1.21491">
        <ele>134</ele>
        <time>2012-04-24T12:37:38Z</time>
      </trkpt>
      <trkpt lat="49.34405" lon="1.21502">
        <ele>134</ele>
        <time>2012-04-24T12:37:48Z</time>
      </trkpt>
      <trkpt lat="49.34398" lon="1.21512">
        <ele>140</ele>
        <time>2012-04-24T12:37:55Z</time>
      </trkpt>
      <trkpt lat="49.34393" lon="1.21524">
        <ele>140</ele>
        <time>2012-04-24T12:38:03Z</time>
      </trkpt>
      <trkpt lat="49.34389" lon="1.21539">
        <ele>140</ele>
        <time>2012-04-24T12:38:10Z</time>
      </trkpt>
      <trkpt lat="49.34386" lon="1.21552">
        <ele>140</ele>
        <time>2012-04-24T12:38:17Z</time>
      </trkpt>
      <trkpt lat="49.34382" lon="1.21565">
        <ele>140</ele>
        <time>2012-04-24T12:38:29Z</time>
      </trkpt>
      <trkpt lat="49.34376" lon="1.21576">
        <ele>140</ele>
        <time>2012-04-24T12:38:37Z</time>
      </trkpt>
      <trkpt lat="49.34369" lon="1.21584">
        <ele>140</ele>
        <time>2012-04-24T12:38:48Z</time>
      </trkpt>
      <trkpt lat="49.34359" lon="1.21586">
        <ele>140</ele>
        <time>2012-04-24T12:38:54Z</time>
      </trkpt>
      <trkpt lat="49.3435" lon="1.21593">
        <ele>140</ele>
        <time>2012-04-24T12:39:04Z</time>
      </trkpt>
      <trkpt lat="49.34342" lon="1.216">
        <ele>140</ele>
        <time>2012-04-24T12:39:11Z</time>
      </trkpt>
      <trkpt lat="49.34334" lon="1.21608">
        <ele>134</ele>
        <time>2012-04-24T12:39:21Z</time>
      </trkpt>
      <trkpt lat="49.34324" lon="1.21611">
        <ele>134</ele>
        <time>2012-04-24T12:39:29Z</time>
      </trkpt>
      <trkpt lat="49.34314" lon="1.21612">
        <ele>134</ele>
        <time>2012-04-24T12:39:39Z</time>
      </trkpt>
      <trkpt lat="49.34305" lon="1.21618">
        <ele>134</ele>
        <time>2012-04-24T12:39:47Z</time>
      </trkpt>
      <trkpt lat="49.34295" lon="1.21616">
        <ele>134</ele>
        <time>2012-04-24T12:39:55Z</time>
      </trkpt>
      <trkpt lat="49.34285" lon="1.21616">
        <ele>134</ele>
        <time>2012-04-24T12:40:03Z</time>
      </trkpt>
      <trkpt lat="49.34275" lon="1.21618">
        <ele>134</ele>
        <time>2012-04-24T12:40:13Z</time>
      </trkpt>
      <trkpt lat="49.34266" lon="1.2162">
        <ele>134</ele>
        <time>2012-04-24T12:40:20Z</time>
      </trkpt>
      <trkpt lat="49.34258" lon="1.21627">
        <ele>134</ele>
        <time>2012-04-24T12:40:27Z</time>
      </trkpt>
      <trkpt lat="49.34248" lon="1.21632">
        <ele>134</ele>
        <time>2012-04-24T12:40:35Z</time>
      </trkpt>
      <trkpt lat="49.34239" lon="1.21634">
        <ele>134</ele>
        <time>2012-04-24T12:40:45Z</time>
      </trkpt>
      <trkpt lat="49.3423" lon="1.21639">
        <ele>134</ele>
        <time>2012-04-24T12:40:55Z</time>
      </trkpt>
      <trkpt lat="49.3422" lon="1.21644">
        <ele>134</ele>
        <time>2012-04-24T12:41:04Z</time>
      </trkpt>
      <trkpt lat="49.34212" lon="1.21647">
        <ele>134</ele>
        <time>2012-04-24T12:41:11Z</time>
      </trkpt>
      <trkpt lat="49.34202" lon="1.21651">
        <ele>134</ele>
        <time>2012-04-24T12:41:20Z</time>
      </trkpt>
      <trkpt lat="49.34192" lon="1.21653">
        <ele>129</ele>
        <time>2012-04-24T12:41:29Z</time>
      </trkpt>
      <trkpt lat="49.34183" lon="1.21656">
        <ele>129</ele>
        <time>2012-04-24T12:41:38Z</time>
      </trkpt>
      <trkpt lat="49.34173" lon="1.21656">
        <ele>129</ele>
        <time>2012-04-24T12:41:48Z</time>
      </trkpt>
      <trkpt lat="49.34163" lon="1.21655">
        <ele>129</ele>
        <time>2012-04-24T12:41:55Z</time>
      </trkpt>
      <trkpt lat="49.34153" lon="1.21657">
        <ele>129</ele>
        <time>2012-04-24T12:42:02Z</time>
      </trkpt>
      <trkpt lat="49.34143" lon="1.21658">
        <ele>129</ele>
        <time>2012-04-24T12:42:10Z</time>
      </trkpt>
      <trkpt lat="49.34134" lon="1.21661">
        <ele>129</ele>
        <time>2012-04-24T12:42:18Z</time>
      </trkpt>
      <trkpt lat="49.34125" lon="1.21664">
        <ele>129</ele>
        <time>2012-04-24T12:42:25Z</time>
      </trkpt>
      <trkpt lat="49.34115" lon="1.21668">
        <ele>129</ele>
        <time>2012-04-24T12:42:34Z</time>
      </trkpt>
      <trkpt lat="49.34106" lon="1.21671">
        <ele>129</ele>
        <time>2012-04-24T12:42:42Z</time>
      </trkpt>
      <trkpt lat="49.34097" lon="1.21677">
        <ele>129</ele>
        <time>2012-04-24T12:42:50Z</time>
      </trkpt>
      <trkpt lat="49.34088" lon="1.21683">
        <ele>129</ele>
        <time>2012-04-24T12:43:00Z</time>
      </trkpt>
      <trkpt lat="49.34079" lon="1.21689">
        <ele>129</ele>
        <time>2012-04-24T12:43:07Z</time>
      </trkpt>
      <trkpt lat="49.34072" lon="1.217">
        <ele>135</ele>
        <time>2012-04-24T12:43:15Z</time>
      </trkpt>
      <trkpt lat="49.34064" lon="1.21708">
        <ele>135</ele>
        <time>2012-04-24T12:43:22Z</time>
      </trkpt>
      <trkpt lat="49.34058" lon="1.21718">
        <ele>135</ele>
        <time>2012-04-24T12:43:32Z</time>
      </trkpt>
      <trkpt lat="49.3405" lon="1.21728">
        <ele>135</ele>
        <time>2012-04-24T12:43:40Z</time>
      </trkpt>
      <trkpt lat="49.34042" lon="1.21738">
        <ele>135</ele>
        <time>2012-04-24T12:43:48Z</time>
      </trkpt>
      <trkpt lat="49.34034" lon="1.21746">
        <ele>135</ele>
        <time>2012-04-24T12:43:56Z</time>
      </trkpt>
      <trkpt lat="49.34025" lon="1.21753">
        <ele>135</ele>
        <time>2012-04-24T12:44:04Z</time>
      </trkpt>
      <trkpt lat="49.34017" lon="1.2176">
        <ele>135</ele>
        <time>2012-04-24T12:44:12Z</time>
      </trkpt>
      <trkpt lat="49.34008" lon="1.21767">
        <ele>135</ele>
        <time>2012-04-24T12:44:22Z</time>
      </trkpt>
      <trkpt lat="49.33999" lon="1.21772">
        <ele>135</ele>
        <time>2012-04-24T12:44:30Z</time>
      </trkpt>
      <trkpt lat="49.3399" lon="1.2178">
        <ele>135</ele>
        <time>2012-04-24T12:44:37Z</time>
      </trkpt>
      <trkpt lat="49.33981" lon="1.21786">
        <ele>129</ele>
        <time>2012-04-24T12:44:46Z</time>
      </trkpt>
      <trkpt lat="49.33973" lon="1.2179">
        <ele>129</ele>
        <time>2012-04-24T12:44:55Z</time>
      </trkpt>
      <trkpt lat="49.33964" lon="1.21794">
        <ele>129</ele>
        <time>2012-04-24T12:45:02Z</time>
      </trkpt>
      <trkpt lat="49.33954" lon="1.218">
        <ele>129</ele>
        <time>2012-04-24T12:45:10Z</time>
      </trkpt>
      <trkpt lat="49.33945" lon="1.21805">
        <ele>129</ele>
        <time>2012-04-24T12:45:19Z</time>
      </trkpt>
      <trkpt lat="49.33936" lon="1.21812">
        <ele>129</ele>
        <time>2012-04-24T12:45:27Z</time>
      </trkpt>
      <trkpt lat="49.33927" lon="1.21819">
        <ele>123</ele>
        <time>2012-04-24T12:45:37Z</time>
      </trkpt>
      <trkpt lat="49.33919" lon="1.21824">
        <ele>123</ele>
        <time>2012-04-24T12:45:46Z</time>
      </trkpt>
      <trkpt lat="49.3391" lon="1.21829">
        <ele>123</ele>
        <time>2012-04-24T12:45:53Z</time>
      </trkpt>
      <trkpt lat="49.33903" lon="1.21838">
        <ele>123</ele>
        <time>2012-04-24T12:46:05Z</time>
      </trkpt>
      <trkpt lat="49.33895" lon="1.21847">
        <ele>123</ele>
        <time>2012-04-24T12:46:12Z</time>
      </trkpt>
      <trkpt lat="49.33886" lon="1.21856">
        <ele>123</ele>
        <time>2012-04-24T12:46:20Z</time>
      </trkpt>
      <trkpt lat="49.3388" lon="1.21868">
        <ele>115</ele>
        <time>2012-04-24T12:46:28Z</time>
      </trkpt>
      <trkpt lat="49.33877" lon="1.21883">
        <ele>115</ele>
        <time>2012-04-24T12:46:37Z</time>
      </trkpt>
      <trkpt lat="49.33873" lon="1.21896">
        <ele>122</ele>
        <time>2012-04-24T12:46:47Z</time>
      </trkpt>
      <trkpt lat="49.33868" lon="1.21909">
        <ele>122</ele>
        <time>2012-04-24T12:46:57Z</time>
      </trkpt>
      <trkpt lat="49.33862" lon="1.2192">
        <ele>122</ele>
        <time>2012-04-24T12:47:03Z</time>
      </trkpt>
      <trkpt lat="49.33853" lon="1.21928">
        <ele>122</ele>
        <time>2012-04-24T12:47:14Z</time>
      </trkpt>
      <trkpt lat="49.33847" lon="1.21939">
        <ele>122</ele>
        <time>2012-04-24T12:47:23Z</time>
      </trkpt>
      <trkpt lat="49.33839" lon="1.21949">
        <ele>122</ele>
        <time>2012-04-24T12:47:33Z</time>
      </trkpt>
      <trkpt lat="49.33833" lon="1.2196">
        <ele>117</ele>
        <time>2012-04-24T12:47:41Z</time>
      </trkpt>
      <trkpt lat="49.33826" lon="1.2197">
        <ele>117</ele>
        <time>2012-04-24T12:47:53Z</time>
      </trkpt>
      <trkpt lat="49.33821" lon="1.21981">
        <ele>117</ele>
        <time>2012-04-24T12:48:00Z</time>
      </trkpt>
      <trkpt lat="49.33814" lon="1.21994">
        <ele>117</ele>
        <time>2012-04-24T12:48:09Z</time>
      </trkpt>
      <trkpt lat="49.33808" lon="1.22006">
        <ele>107</ele>
        <time>2012-04-24T12:48:21Z</time>
      </trkpt>
      <trkpt lat="49.33802" lon="1.22017">
        <ele>107</ele>
        <time>2012-04-24T12:48:29Z</time>
      </trkpt>
      <trkpt lat="49.33795" lon="1.22026">
        <ele>99</ele>
        <time>2012-04-24T12:48:39Z</time>
      </trkpt>
      <trkpt lat="49.33788" lon="1.22036">
        <ele>99</ele>
        <time>2012-04-24T12:48:48Z</time>
      </trkpt>
      <trkpt lat="49.33779" lon="1.22044">
        <ele>99</ele>
        <time>2012-04-24T12:48:58Z</time>
      </trkpt>
      <trkpt lat="49.33771" lon="1.22052">
        <ele>92</ele>
        <time>2012-04-24T12:49:07Z</time>
      </trkpt>
      <trkpt lat="49.33765" lon="1.22063">
        <ele>92</ele>
        <time>2012-04-24T12:49:14Z</time>
      </trkpt>
      <trkpt lat="49.33757" lon="1.22071">
        <ele>92</ele>
        <time>2012-04-24T12:49:24Z</time>
      </trkpt>
      <trkpt lat="49.33748" lon="1.22077">
        <ele>92</ele>
        <time>2012-04-24T12:49:35Z</time>
      </trkpt>
      <trkpt lat="49.3374" lon="1.22084">
        <ele>92</ele>
        <time>2012-04-24T12:49:42Z</time>
      </trkpt>
      <trkpt lat="49.33731" lon="1.2209">
        <ele>92</ele>
        <time>2012-04-24T12:49:51Z</time>
      </trkpt>
      <trkpt lat="49.33725" lon="1.22103">
        <ele>86</ele>
        <time>2012-04-24T12:50:04Z</time>
      </trkpt>
      <trkpt lat="49.3372" lon="1.22114">
        <ele>80</ele>
        <time>2012-04-24T12:50:13Z</time>
      </trkpt>
      <trkpt lat="49.33713" lon="1.22124">
        <ele>74</ele>
        <time>2012-04-24T12:50:21Z</time>
      </trkpt>
      <trkpt lat="49.33707" lon="1.22136">
        <ele>74</ele>
        <time>2012-04-24T12:50:29Z</time>
      </trkpt>
      <trkpt lat="49.33703" lon="1.22148">
        <ele>74</ele>
        <time>2012-04-24T12:50:37Z</time>
      </trkpt>
      <trkpt lat="49.33697" lon="1.2216">
        <ele>74</ele>
        <time>2012-04-24T12:50:45Z</time>
      </trkpt>
      <trkpt lat="49.33689" lon="1.2217">
        <ele>81</ele>
        <time>2012-04-24T12:50:55Z</time>
      </trkpt>
      <trkpt lat="49.33683" lon="1.22181">
        <ele>81</ele>
        <time>2012-04-24T12:51:04Z</time>
      </trkpt>
      <trkpt lat="49.33677" lon="1.22192">
        <ele>81</ele>
        <time>2012-04-24T12:51:12Z</time>
      </trkpt>
      <trkpt lat="49.33671" lon="1.22203">
        <ele>81</ele>
        <time>2012-04-24T12:51:22Z</time>
      </trkpt>
      <trkpt lat="49.33663" lon="1.22211">
        <ele>73</ele>
        <time>2012-04-24T12:51:31Z</time>
      </trkpt>
      <trkpt lat="49.33656" lon="1.22222">
        <ele>73</ele>
        <time>2012-04-24T12:51:38Z</time>
      </trkpt>
      <trkpt lat="49.33648" lon="1.2223">
        <ele>73</ele>
        <time>2012-04-24T12:51:48Z</time>
      </trkpt>
      <trkpt lat="49.3364" lon="1.22238">
        <ele>73</ele>
        <time>2012-04-24T12:51:56Z</time>
      </trkpt>
      <trkpt lat="49.33634" lon="1.2225">
        <ele>73</ele>
        <time>2012-04-24T12:52:06Z</time>
      </trkpt>
      <trkpt lat="49.33631" lon="1.22264">
        <ele>73</ele>
        <time>2012-04-24T12:52:16Z</time>
      </trkpt>
      <trkpt lat="49.33628" lon="1.22278">
        <ele>73</ele>
        <time>2012-04-24T12:52:25Z</time>
      </trkpt>
      <trkpt lat="49.33626" lon="1.22294">
        <ele>82</ele>
        <time>2012-04-24T12:52:36Z</time>
      </trkpt>
      <trkpt lat="49.3362" lon="1.22306">
        <ele>82</ele>
        <time>2012-04-24T12:52:44Z</time>
      </trkpt>
      <trkpt lat="49.33616" lon="1.22319">
        <ele>82</ele>
        <time>2012-04-24T12:52:53Z</time>
      </trkpt>
      <trkpt lat="49.33613" lon="1.22334">
        <ele>82</ele>
        <time>2012-04-24T12:53:02Z</time>
      </trkpt>
      <trkpt lat="49.3361" lon="1.22349">
        <ele>70</ele>
        <time>2012-04-24T12:53:12Z</time>
      </trkpt>
      <trkpt lat="49.33602" lon="1.22357">
        <ele>70</ele>
        <time>2012-04-24T12:53:20Z</time>
      </trkpt>
      <trkpt lat="49.33593" lon="1.22361">
        <ele>70</ele>
        <time>2012-04-24T12:53:29Z</time>
      </trkpt>
      <trkpt lat="49.33584" lon="1.22367">
        <ele>70</ele>
        <time>2012-04-24T12:53:38Z</time>
      </trkpt>
      <trkpt lat="49.33575" lon="1.22372">
        <ele>70</ele>
        <time>2012-04-24T12:53:48Z</time>
      </trkpt>
      <trkpt lat="49.33565" lon="1.2238">
        <ele>70</ele>
        <time>2012-04-24T12:53:55Z</time>
      </trkpt>
      <trkpt lat="49.33558" lon="1.22388">
        <ele>63</ele>
        <time>2012-04-24T12:54:02Z</time>
      </trkpt>
      <trkpt lat="49.3355" lon="1.22397">
        <ele>63</ele>
        <time>2012-04-24T12:54:11Z</time>
      </trkpt>
      <trkpt lat="49.33542" lon="1.22404">
        <ele>63</ele>
        <time>2012-04-24T12:54:20Z</time>
      </trkpt>
      <trkpt lat="49.33533" lon="1.22411">
        <ele>56</ele>
        <time>2012-04-24T12:54:28Z</time>
      </trkpt>
      <trkpt lat="49.33524" lon="1.22416">
        <ele>56</ele>
        <time>2012-04-24T12:54:38Z</time>
      </trkpt>
      <trkpt lat="49.33515" lon="1.22422">
        <ele>56</ele>
        <time>2012-04-24T12:54:47Z</time>
      </trkpt>
      <trkpt lat="49.33508" lon="1.22431">
        <ele>56</ele>
        <time>2012-04-24T12:54:56Z</time>
      </trkpt>
      <trkpt lat="49.33499" lon="1.2244">
        <ele>56</ele>
        <time>2012-04-24T12:55:07Z</time>
      </trkpt>
      <trkpt lat="49.33489" lon="1.22446">
        <ele>56</ele>
        <time>2012-04-24T12:55:16Z</time>
      </trkpt>
      <trkpt lat="49.33481" lon="1.22455">
        <ele>56</ele>
        <time>2012-04-24T12:55:25Z</time>
      </trkpt>
      <trkpt lat="49.33473" lon="1.22464">
        <ele>56</ele>
        <time>2012-04-24T12:55:35Z</time>
      </trkpt>
      <trkpt lat="49.33464" lon="1.2247">
        <ele>56</ele>
        <time>2012-04-24T12:55:42Z</time>
      </trkpt>
      <trkpt lat="49.33455" lon="1.22475">
        <ele>49</ele>
        <time>2012-04-24T12:55:51Z</time>
      </trkpt>
      <trkpt lat="49.33445" lon="1.22481">
        <ele>49</ele>
        <time>2012-04-24T12:56:03Z</time>
      </trkpt>
      <trkpt lat="49.33435" lon="1.22484">
        <ele>49</ele>
        <time>2012-04-24T12:56:14Z</time>
      </trkpt>
      <trkpt lat="49.33426" lon="1.22482">
        <ele>49</ele>
        <time>2012-04-24T12:56:22Z</time>
      </trkpt>
      <trkpt lat="49.33416" lon="1.22481">
        <ele>49</ele>
        <time>2012-04-24T12:56:32Z</time>
      </trkpt>
      <trkpt lat="49.33406" lon="1.2248">
        <ele>49</ele>
        <time>2012-04-24T12:56:44Z</time>
      </trkpt>
      <trkpt lat="49.33396" lon="1.22479">
        <ele>49</ele>
        <time>2012-04-24T12:56:51Z</time>
      </trkpt>
      <trkpt lat="49.33386" lon="1.22481">
        <ele>49</ele>
        <time>2012-04-24T12:57:01Z</time>
      </trkpt>
      <trkpt lat="49.33376" lon="1.22484">
        <ele>44</ele>
        <time>2012-04-24T12:57:11Z</time>
      </trkpt>
      <trkpt lat="49.33367" lon="1.2248">
        <ele>44</ele>
        <time>2012-04-24T12:57:22Z</time>
      </trkpt>
      <trkpt lat="49.33357" lon="1.22476">
        <ele>44</ele>
        <time>2012-04-24T12:57:32Z</time>
      </trkpt>
      <trkpt lat="49.33348" lon="1.22474">
        <ele>44</ele>
        <time>2012-04-24T12:57:42Z</time>
      </trkpt>
      <trkpt lat="49.33338" lon="1.22471">
        <ele>44</ele>
        <time>2012-04-24T12:57:53Z</time>
      </trkpt>
      <trkpt lat="49.33329" lon="1.22465">
        <ele>44</ele>
        <time>2012-04-24T12:58:03Z</time>
      </trkpt>
      <trkpt lat="49.3332" lon="1.22459">
        <ele>38</ele>
        <time>2012-04-24T12:58:11Z</time>
      </trkpt>
      <trkpt lat="49.33311" lon="1.2246">
        <ele>38</ele>
        <time>2012-04-24T12:58:17Z</time>
      </trkpt>
      <trkpt lat="49.33302" lon="1.22463">
        <ele>38</ele>
        <time>2012-04-24T12:58:25Z</time>
      </trkpt>
      <trkpt lat="49.33292" lon="1.22466">
        <ele>38</ele>
        <time>2012-04-24T12:58:33Z</time>
      </trkpt>
      <trkpt lat="49.33282" lon="1.22468">
        <ele>38</ele>
        <time>2012-04-24T12:58:42Z</time>
      </trkpt>
      <trkpt lat="49.33272" lon="1.2247">
        <ele>38</ele>
        <time>2012-04-24T12:58:51Z</time>
      </trkpt>
      <trkpt lat="49.33263" lon="1.22475">
        <ele>38</ele>
        <time>2012-04-24T12:59:00Z</time>
      </trkpt>
      <trkpt lat="49.33254" lon="1.22479">
        <ele>38</ele>
        <time>2012-04-24T12:59:12Z</time>
      </trkpt>
      <trkpt lat="49.33244" lon="1.22482">
        <ele>30</ele>
        <time>2012-04-24T12:59:25Z</time>
      </trkpt>
      <trkpt lat="49.33234" lon="1.22484">
        <ele>30</ele>
        <time>2012-04-24T12:59:35Z</time>
      </trkpt>
      <trkpt lat="49.33225" lon="1.22487">
        <ele>30</ele>
        <time>2012-04-24T12:59:45Z</time>
      </trkpt>
      <trkpt lat="49.33215" lon="1.22489">
        <ele>30</ele>
        <time>2012-04-24T12:59:55Z</time>
      </trkpt>
      <trkpt lat="49.33205" lon="1.22492">
        <ele>30</ele>
        <time>2012-04-24T13:00:04Z</time>
      </trkpt>
      <trkpt lat="49.33196" lon="1.22493">
        <ele>24</ele>
        <time>2012-04-24T13:00:12Z</time>
      </trkpt>
      <trkpt lat="49.33186" lon="1.22493">
        <ele>24</ele>
        <time>2012-04-24T13:00:20Z</time>
      </trkpt>
      <trkpt lat="49.33176" lon="1.22492">
        <ele>24</ele>
        <time>2012-04-24T13:00:30Z</time>
      </trkpt>
      <trkpt lat="49.33167" lon="1.22493">
        <ele>24</ele>
        <time>2012-04-24T13:00:38Z</time>
      </trkpt>
      <trkpt lat="49.33157" lon="1.22494">
        <ele>24</ele>
        <time>2012-04-24T13:00:47Z</time>
      </trkpt>
      <trkpt lat="49.33147" lon="1.22497">
        <ele>19</ele>
        <time>2012-04-24T13:00:57Z</time>
      </trkpt>
      <trkpt lat="49.33137" lon="1.22497">
        <ele>19</ele>
        <time>2012-04-24T13:01:07Z</time>
      </trkpt>
      <trkpt lat="49.33127" lon="1.22494">
        <ele>19</ele>
        <time>2012-04-24T13:01:15Z</time>
      </trkpt>
      <trkpt lat="49.33117" lon="1.22496">
        <ele>19</ele>
        <time>2012-04-24T13:01:26Z</time>
      </trkpt>
      <trkpt lat="49.33118" lon="1.2251">
        <ele>19</ele>
        <time>2012-04-24T13:06:52Z</time>
      </trkpt>
      <trkpt lat="49.33122" lon="1.22524">
        <ele>19</ele>
        <time>2012-04-24T13:07:04Z</time>
      </trkpt>
      <trkpt lat="49.33125" lon="1.22537">
        <ele>19</ele>
        <time>2012-04-24T13:07:16Z</time>
      </trkpt>
      <trkpt lat="49.33127" lon="1.22551">
        <ele>24</ele>
        <time>2012-04-24T13:07:26Z</time>
      </trkpt>
      <trkpt lat="49.33129" lon="1.22565">
        <ele>24</ele>
        <time>2012-04-24T13:07:35Z</time>
      </trkpt>
      <trkpt lat="49.33129" lon="1.2258">
        <ele>24</ele>
        <time>2012-04-24T13:07:44Z</time>
      </trkpt>
      <trkpt lat="49.33131" lon="1.22594">
        <ele>24</ele>
        <time>2012-04-24T13:07:53Z</time>
      </trkpt>
      <trkpt lat="49.33133" lon="1.22609">
        <ele>24</ele>
        <time>2012-04-24T13:08:02Z</time>
      </trkpt>
      <trkpt lat="49.33135" lon="1.22623">
        <ele>24</ele>
        <time>2012-04-24T13:08:10Z</time>
      </trkpt>
      <trkpt lat="49.33137" lon="1.22638">
        <ele>24</ele>
        <time>2012-04-24T13:08:19Z</time>
      </trkpt>
      <trkpt lat="49.33138" lon="1.22653">
        <ele>24</ele>
        <time>2012-04-24T13:08:28Z</time>
      </trkpt>
      <trkpt lat="49.3314" lon="1.22668">
        <ele>24</ele>
        <time>2012-04-24T13:08:36Z</time>
      </trkpt>
      <trkpt lat="49.33142" lon="1.22683">
        <ele>24</ele>
        <time>2012-04-24T13:08:45Z</time>
      </trkpt>
      <trkpt lat="49.33143" lon="1.22697">
        <ele>24</ele>
        <time>2012-04-24T13:08:54Z</time>
      </trkpt>
      <trkpt lat="49.33145" lon="1.22712">
        <ele>24</ele>
        <time>2012-04-24T13:09:02Z</time>
      </trkpt>
      <trkpt lat="49.33146" lon="1.22727">
        <ele>24</ele>
        <time>2012-04-24T13:09:12Z</time>
      </trkpt>
      <trkpt lat="49.33147" lon="1.22741">
        <ele>24</ele>
        <time>2012-04-24T13:09:20Z</time>
      </trkpt>
      <trkpt lat="49.33148" lon="1.22757">
        <ele>24</ele>
        <time>2012-04-24T13:09:28Z</time>
      </trkpt>
      <trkpt lat="49.3315" lon="1.22772">
        <ele>24</ele>
        <time>2012-04-24T13:09:36Z</time>
      </trkpt>
      <trkpt lat="49.33151" lon="1.22786">
        <ele>24</ele>
        <time>2012-04-24T13:09:43Z</time>
      </trkpt>
      <trkpt lat="49.33152" lon="1.22802">
        <ele>24</ele>
        <time>2012-04-24T13:09:52Z</time>
      </trkpt>
      <trkpt lat="49.33152" lon="1.22816">
        <ele>24</ele>
        <time>2012-04-24T13:10:00Z</time>
      </trkpt>
      <trkpt lat="49.33151" lon="1.22831">
        <ele>24</ele>
        <time>2012-04-24T13:10:09Z</time>
      </trkpt>
      <trkpt lat="49.33151" lon="1.22846">
        <ele>24</ele>
        <time>2012-04-24T13:10:17Z</time>
      </trkpt>
      <trkpt lat="49.3315" lon="1.22862">
        <ele>24</ele>
        <time>2012-04-24T13:10:25Z</time>
      </trkpt>
      <trkpt lat="49.33148" lon="1.22876">
        <ele>24</ele>
        <time>2012-04-24T13:10:33Z</time>
      </trkpt>
      <trkpt lat="49.33147" lon="1.22891">
        <ele>24</ele>
        <time>2012-04-24T13:10:41Z</time>
      </trkpt>
      <trkpt lat="49.33145" lon="1.22906">
        <ele>24</ele>
        <time>2012-04-24T13:10:49Z</time>
      </trkpt>
      <trkpt lat="49.33144" lon="1.2292">
        <ele>24</ele>
        <time>2012-04-24T13:10:56Z</time>
      </trkpt>
      <trkpt lat="49.33143" lon="1.22934">
        <ele>24</ele>
        <time>2012-04-24T13:11:04Z</time>
      </trkpt>
      <trkpt lat="49.33142" lon="1.2295">
        <ele>24</ele>
        <time>2012-04-24T13:11:12Z</time>
      </trkpt>
      <trkpt lat="49.33141" lon="1.22965">
        <ele>24</ele>
        <time>2012-04-24T13:11:21Z</time>
      </trkpt>
      <trkpt lat="49.33138" lon="1.2298">
        <ele>24</ele>
        <time>2012-04-24T13:11:31Z</time>
      </trkpt>
      <trkpt lat="49.33137" lon="1.22995">
        <ele>24</ele>
        <time>2012-04-24T13:11:39Z</time>
      </trkpt>
      <trkpt lat="49.33134" lon="1.23008">
        <ele>24</ele>
        <time>2012-04-24T13:11:48Z</time>
      </trkpt>
      <trkpt lat="49.33131" lon="1.23022">
        <ele>24</ele>
        <time>2012-04-24T13:11:56Z</time>
      </trkpt>
      <trkpt lat="49.33128" lon="1.23036">
        <ele>24</ele>
        <time>2012-04-24T13:12:04Z</time>
      </trkpt>
      <trkpt lat="49.33126" lon="1.23049">
        <ele>24</ele>
        <time>2012-04-24T13:12:12Z</time>
      </trkpt>
      <trkpt lat="49.33124" lon="1.23063">
        <ele>24</ele>
        <time>2012-04-24T13:12:20Z</time>
      </trkpt>
      <trkpt lat="49.33121" lon="1.23077">
        <ele>24</ele>
        <time>2012-04-24T13:12:28Z</time>
      </trkpt>
      <trkpt lat="49.33119" lon="1.23092">
        <ele>24</ele>
        <time>2012-04-24T13:12:36Z</time>
      </trkpt>
      <trkpt lat="49.33116" lon="1.23106">
        <ele>24</ele>
        <time>2012-04-24T13:12:44Z</time>
      </trkpt>
      <trkpt lat="49.33113" lon="1.2312">
        <ele>24</ele>
        <time>2012-04-24T13:12:51Z</time>
      </trkpt>
      <trkpt lat="49.33112" lon="1.23135">
        <ele>24</ele>
        <time>2012-04-24T13:12:59Z</time>
      </trkpt>
      <trkpt lat="49.33112" lon="1.23149">
        <ele>24</ele>
        <time>2012-04-24T13:13:06Z</time>
      </trkpt>
      <trkpt lat="49.33114" lon="1.23164">
        <ele>24</ele>
        <time>2012-04-24T13:13:15Z</time>
      </trkpt>
      <trkpt lat="49.33114" lon="1.23179">
        <ele>24</ele>
        <time>2012-04-24T13:13:23Z</time>
      </trkpt>
      <trkpt lat="49.33114" lon="1.23193">
        <ele>24</ele>
        <time>2012-04-24T13:13:32Z</time>
      </trkpt>
      <trkpt lat="49.33112" lon="1.23208">
        <ele>24</ele>
        <time>2012-04-24T13:13:40Z</time>
      </trkpt>
      <trkpt lat="49.33111" lon="1.23224">
        <ele>24</ele>
        <time>2012-04-24T13:13:48Z</time>
      </trkpt>
      <trkpt lat="49.3311" lon="1.23239">
        <ele>24</ele>
        <time>2012-04-24T13:13:56Z</time>
      </trkpt>
      <trkpt lat="49.33108" lon="1.23253">
        <ele>24</ele>
        <time>2012-04-24T13:14:03Z</time>
      </trkpt>
      <trkpt lat="49.3311" lon="1.23269">
        <ele>24</ele>
        <time>2012-04-24T13:14:11Z</time>
      </trkpt>
      <trkpt lat="49.3311" lon="1.23284">
        <ele>24</ele>
        <time>2012-04-24T13:14:19Z</time>
      </trkpt>
      <trkpt lat="49.33111" lon="1.23299">
        <ele>24</ele>
        <time>2012-04-24T13:14:27Z</time>
      </trkpt>
      <trkpt lat="49.33114" lon="1.23314">
        <ele>24</ele>
        <time>2012-04-24T13:14:35Z</time>
      </trkpt>
      <trkpt lat="49.33117" lon="1.23328">
        <ele>24</ele>
        <time>2012-04-24T13:14:43Z</time>
      </trkpt>
      <trkpt lat="49.3312" lon="1.23342">
        <ele>24</ele>
        <time>2012-04-24T13:14:51Z</time>
      </trkpt>
      <trkpt lat="49.33124" lon="1.23356">
        <ele>24</ele>
        <time>2012-04-24T13:14:59Z</time>
      </trkpt>
      <trkpt lat="49.33127" lon="1.2337">
        <ele>24</ele>
        <time>2012-04-24T13:15:08Z</time>
      </trkpt>
      <trkpt lat="49.33131" lon="1.23384">
        <ele>24</ele>
        <time>2012-04-24T13:15:16Z</time>
      </trkpt>
      <trkpt lat="49.33134" lon="1.23397">
        <ele>24</ele>
        <time>2012-04-24T13:15:24Z</time>
      </trkpt>
      <trkpt lat="49.33137" lon="1.23412">
        <ele>24</ele>
        <time>2012-04-24T13:15:32Z</time>
      </trkpt>
      <trkpt lat="49.3314" lon="1.23426">
        <ele>24</ele>
        <time>2012-04-24T13:15:41Z</time>
      </trkpt>
      <trkpt lat="49.33141" lon="1.23441">
        <ele>24</ele>
        <time>2012-04-24T13:15:51Z</time>
      </trkpt>
      <trkpt lat="49.33143" lon="1.23456">
        <ele>24</ele>
        <time>2012-04-24T13:16:00Z</time>
      </trkpt>
      <trkpt lat="49.33148" lon="1.23468">
        <ele>24</ele>
        <time>2012-04-24T13:16:09Z</time>
      </trkpt>
      <trkpt lat="49.33153" lon="1.23482">
        <ele>24</ele>
        <time>2012-04-24T13:16:18Z</time>
      </trkpt>
      <trkpt lat="49.33157" lon="1.23495">
        <ele>24</ele>
        <time>2012-04-24T13:16:27Z</time>
      </trkpt>
      <trkpt lat="49.33161" lon="1.23508">
        <ele>24</ele>
        <time>2012-04-24T13:16:35Z</time>
      </trkpt>
      <trkpt lat="49.33164" lon="1.23522">
        <ele>24</ele>
        <time>2012-04-24T13:16:44Z</time>
      </trkpt>
      <trkpt lat="49.33167" lon="1.23535">
        <ele>24</ele>
        <time>2012-04-24T13:16:52Z</time>
      </trkpt>
      <trkpt lat="49.33171" lon="1.23549">
        <ele>24</ele>
        <time>2012-04-24T13:17:01Z</time>
      </trkpt>
      <trkpt lat="49.33174" lon="1.23563">
        <ele>24</ele>
        <time>2012-04-24T13:17:10Z</time>
      </trkpt>
      <trkpt lat="49.33178" lon="1.23577">
        <ele>24</ele>
        <time>2012-04-24T13:17:19Z</time>
      </trkpt>
      <trkpt lat="49.33181" lon="1.23591">
        <ele>24</ele>
        <time>2012-04-24T13:17:27Z</time>
      </trkpt>
      <trkpt lat="49.33184" lon="1.23605">
        <ele>24</ele>
        <time>2012-04-24T13:17:35Z</time>
      </trkpt>
      <trkpt lat="49.33187" lon="1.23619">
        <ele>24</ele>
        <time>2012-04-24T13:17:43Z</time>
      </trkpt>
      <trkpt lat="49.33191" lon="1.23632">
        <ele>24</ele>
        <time>2012-04-24T13:17:51Z</time>
      </trkpt>
      <trkpt lat="49.33194" lon="1.23646">
        <ele>24</ele>
        <time>2012-04-24T13:17:59Z</time>
      </trkpt>
      <trkpt lat="49.33198" lon="1.2366">
        <ele>24</ele>
        <time>2012-04-24T13:18:08Z</time>
      </trkpt>
      <trkpt lat="49.33202" lon="1.23674">
        <ele>24</ele>
        <time>2012-04-24T13:18:16Z</time>
      </trkpt>
      <trkpt lat="49.33205" lon="1.23687">
        <ele>24</ele>
        <time>2012-04-24T13:18:24Z</time>
      </trkpt>
      <trkpt lat="49.33208" lon="1.23701">
        <ele>24</ele>
        <time>2012-04-24T13:18:32Z</time>
      </trkpt>
      <trkpt lat="49.33212" lon="1.23714">
        <ele>24</ele>
        <time>2012-04-24T13:18:40Z</time>
      </trkpt>
      <trkpt lat="49.33215" lon="1.23729">
        <ele>24</ele>
        <time>2012-04-24T13:18:48Z</time>
      </trkpt>
      <trkpt lat="49.33218" lon="1.23743">
        <ele>24</ele>
        <time>2012-04-24T13:18:57Z</time>
      </trkpt>
      <trkpt lat="49.33221" lon="1.23757">
        <ele>24</ele>
        <time>2012-04-24T13:19:05Z</time>
      </trkpt>
      <trkpt lat="49.33224" lon="1.23772">
        <ele>24</ele>
        <time>2012-04-24T13:19:13Z</time>
      </trkpt>
      <trkpt lat="49.33226" lon="1.23785">
        <ele>24</ele>
        <time>2012-04-24T13:19:21Z</time>
      </trkpt>
      <trkpt lat="49.33229" lon="1.23799">
        <ele>24</ele>
        <time>2012-04-24T13:19:29Z</time>
      </trkpt>
      <trkpt lat="49.33232" lon="1.23813">
        <ele>24</ele>
        <time>2012-04-24T13:19:37Z</time>
      </trkpt>
      <trkpt lat="49.33235" lon="1.23827">
        <ele>24</ele>
        <time>2012-04-24T13:19:45Z</time>
      </trkpt>
      <trkpt lat="49.33238" lon="1.23842">
        <ele>24</ele>
        <time>2012-04-24T13:19:53Z</time>
      </trkpt>
      <trkpt lat="49.33241" lon="1.23855">
        <ele>24</ele>
        <time>2012-04-24T13:20:01Z</time>
      </trkpt>
      <trkpt lat="49.33244" lon="1.2387">
        <ele>24</ele>
        <time>2012-04-24T13:20:09Z</time>
      </trkpt>
      <trkpt lat="49.33246" lon="1.23884">
        <ele>24</ele>
        <time>2012-04-24T13:20:17Z</time>
      </trkpt>
      <trkpt lat="49.33248" lon="1.23898">
        <ele>18</ele>
        <time>2012-04-24T13:20:25Z</time>
      </trkpt>
      <trkpt lat="49.33251" lon="1.23913">
        <ele>18</ele>
        <time>2012-04-24T13:20:34Z</time>
      </trkpt>
      <trkpt lat="49.33253" lon="1.23927">
        <ele>18</ele>
        <time>2012-04-24T13:20:42Z</time>
      </trkpt>
      <trkpt lat="49.33257" lon="1.23941">
        <ele>18</ele>
        <time>2012-04-24T13:20:50Z</time>
      </trkpt>
      <trkpt lat="49.33261" lon="1.23954">
        <ele>18</ele>
        <time>2012-04-24T13:20:58Z</time>
      </trkpt>
      <trkpt lat="49.33265" lon="1.23968">
        <ele>18</ele>
        <time>2012-04-24T13:21:06Z</time>
      </trkpt>
      <trkpt lat="49.33269" lon="1.23982">
        <ele>18</ele>
        <time>2012-04-24T13:21:14Z</time>
      </trkpt>
      <trkpt lat="49.33274" lon="1.23995">
        <ele>18</ele>
        <time>2012-04-24T13:21:22Z</time>
      </trkpt>
      <trkpt lat="49.33278" lon="1.24009">
        <ele>18</ele>
        <time>2012-04-24T13:21:30Z</time>
      </trkpt>
      <trkpt lat="49.33282" lon="1.24022">
        <ele>18</ele>
        <time>2012-04-24T13:21:38Z</time>
      </trkpt>
      <trkpt lat="49.33287" lon="1.24036">
        <ele>18</ele>
        <time>2012-04-24T13:21:46Z</time>
      </trkpt>
      <trkpt lat="49.33291" lon="1.24049">
        <ele>18</ele>
        <time>2012-04-24T13:21:54Z</time>
      </trkpt>
      <trkpt lat="49.33295" lon="1.24063">
        <ele>18</ele>
        <time>2012-04-24T13:22:02Z</time>
      </trkpt>
      <trkpt lat="49.33299" lon="1.24075">
        <ele>18</ele>
        <time>2012-04-24T13:22:10Z</time>
      </trkpt>
      <trkpt lat="49.33303" lon="1.24088">
        <ele>18</ele>
        <time>2012-04-24T13:22:17Z</time>
      </trkpt>
      <trkpt lat="49.33308" lon="1.24101">
        <ele>18</ele>
        <time>2012-04-24T13:22:25Z</time>
      </trkpt>
      <trkpt lat="49.33312" lon="1.24114">
        <ele>18</ele>
        <time>2012-04-24T13:22:33Z</time>
      </trkpt>
      <trkpt lat="49.33317" lon="1.24127">
        <ele>18</ele>
        <time>2012-04-24T13:22:44Z</time>
      </trkpt>
      <trkpt lat="49.3332" lon="1.24141">
        <ele>18</ele>
        <time>2012-04-24T13:22:54Z</time>
      </trkpt>
      <trkpt lat="49.33322" lon="1.24155">
        <ele>18</ele>
        <time>2012-04-24T13:23:04Z</time>
      </trkpt>
      <trkpt lat="49.33322" lon="1.24171">
        <ele>18</ele>
        <time>2012-04-24T13:23:12Z</time>
      </trkpt>
      <trkpt lat="49.33323" lon="1.24185">
        <ele>18</ele>
        <time>2012-04-24T13:23:19Z</time>
      </trkpt>
      <trkpt lat="49.33323" lon="1.242">
        <ele>18</ele>
        <time>2012-04-24T13:23:26Z</time>
      </trkpt>
      <trkpt lat="49.33323" lon="1.24215">
        <ele>18</ele>
        <time>2012-04-24T13:23:33Z</time>
      </trkpt>
      <trkpt lat="49.33324" lon="1.2423">
        <ele>18</ele>
        <time>2012-04-24T13:23:40Z</time>
      </trkpt>
      <trkpt lat="49.33324" lon="1.24244">
        <ele>18</ele>
        <time>2012-04-24T13:23:47Z</time>
      </trkpt>
      <trkpt lat="49.33324" lon="1.2426">
        <ele>18</ele>
        <time>2012-04-24T13:23:55Z</time>
      </trkpt>
      <trkpt lat="49.33324" lon="1.24275">
        <ele>18</ele>
        <time>2012-04-24T13:24:03Z</time>
      </trkpt>
      <trkpt lat="49.33324" lon="1.2429">
        <ele>18</ele>
        <time>2012-04-24T13:24:11Z</time>
      </trkpt>
      <trkpt lat="49.33323" lon="1.24305">
        <ele>18</ele>
        <time>2012-04-24T13:24:19Z</time>
      </trkpt>
      <trkpt lat="49.33325" lon="1.2432">
        <ele>18</ele>
        <time>2012-04-24T13:24:27Z</time>
      </trkpt>
      <trkpt lat="49.33323" lon="1.24335">
        <ele>18</ele>
        <time>2012-04-24T13:24:37Z</time>
      </trkpt>
      <trkpt lat="49.33319" lon="1.24348">
        <ele>18</ele>
        <time>2012-04-24T13:24:46Z</time>
      </trkpt>
      <trkpt lat="49.33319" lon="1.24364">
        <ele>18</ele>
        <time>2012-04-24T13:24:55Z</time>
      </trkpt>
      <trkpt lat="49.33317" lon="1.24379">
        <ele>18</ele>
        <time>2012-04-24T13:25:04Z</time>
      </trkpt>
      <trkpt lat="49.33317" lon="1.24394">
        <ele>18</ele>
        <time>2012-04-24T13:25:13Z</time>
      </trkpt>
      <trkpt lat="49.33321" lon="1.24408">
        <ele>18</ele>
        <time>2012-04-24T13:25:25Z</time>
      </trkpt>
      <trkpt lat="49.33325" lon="1.24422">
        <ele>18</ele>
        <time>2012-04-24T13:25:36Z</time>
      </trkpt>
      <trkpt lat="49.33329" lon="1.24435">
        <ele>18</ele>
        <time>2012-04-24T13:25:47Z</time>
      </trkpt>
      <trkpt lat="49.33333" lon="1.24449">
        <ele>18</ele>
        <time>2012-04-24T13:25:57Z</time>
      </trkpt>
      <trkpt lat="49.33337" lon="1.24462">
        <ele>18</ele>
        <time>2012-04-24T13:26:06Z</time>
      </trkpt>
      <trkpt lat="49.33342" lon="1.24475">
        <ele>18</ele>
        <time>2012-04-24T13:26:16Z</time>
      </trkpt>
      <trkpt lat="49.33348" lon="1.24487">
        <ele>18</ele>
        <time>2012-04-24T13:26:26Z</time>
      </trkpt>
      <trkpt lat="49.33352" lon="1.24499">
        <ele>18</ele>
        <time>2012-04-24T13:26:34Z</time>
      </trkpt>
      <trkpt lat="49.33357" lon="1.24513">
        <ele>18</ele>
        <time>2012-04-24T13:26:43Z</time>
      </trkpt>
      <trkpt lat="49.33363" lon="1.24525">
        <ele>18</ele>
        <time>2012-04-24T13:26:51Z</time>
      </trkpt>
      <trkpt lat="49.33368" lon="1.24538">
        <ele>18</ele>
        <time>2012-04-24T13:26:59Z</time>
      </trkpt>
      <trkpt lat="49.33373" lon="1.24551">
        <ele>18</ele>
        <time>2012-04-24T13:27:08Z</time>
      </trkpt>
      <trkpt lat="49.33379" lon="1.24564">
        <ele>18</ele>
        <time>2012-04-24T13:27:17Z</time>
      </trkpt>
      <trkpt lat="49.33383" lon="1.24577">
        <ele>18</ele>
        <time>2012-04-24T13:27:25Z</time>
      </trkpt>
      <trkpt lat="49.33387" lon="1.2459">
        <ele>18</ele>
        <time>2012-04-24T13:27:34Z</time>
      </trkpt>
      <trkpt lat="49.33392" lon="1.24603">
        <ele>18</ele>
        <time>2012-04-24T13:27:43Z</time>
      </trkpt>
      <trkpt lat="49.33397" lon="1.24616">
        <ele>18</ele>
        <time>2012-04-24T13:27:52Z</time>
      </trkpt>
      <trkpt lat="49.33401" lon="1.24629">
        <ele>18</ele>
        <time>2012-04-24T13:28:00Z</time>
      </trkpt>
      <trkpt lat="49.33406" lon="1.24641">
        <ele>18</ele>
        <time>2012-04-24T13:28:08Z</time>
      </trkpt>
      <trkpt lat="49.3341" lon="1.24655">
        <ele>18</ele>
        <time>2012-04-24T13:28:17Z</time>
      </trkpt>
      <trkpt lat="49.33414" lon="1.24667">
        <ele>18</ele>
        <time>2012-04-24T13:28:26Z</time>
      </trkpt>
      <trkpt lat="49.33418" lon="1.24681">
        <ele>18</ele>
        <time>2012-04-24T13:28:35Z</time>
      </trkpt>
      <trkpt lat="49.33423" lon="1.24694">
        <ele>18</ele>
        <time>2012-04-24T13:28:43Z</time>
      </trkpt>
      <trkpt lat="49.33427" lon="1.24708">
        <ele>18</ele>
        <time>2012-04-24T13:28:51Z</time>
      </trkpt>
      <trkpt lat="49.33431" lon="1.2472">
        <ele>18</ele>
        <time>2012-04-24T13:28:59Z</time>
      </trkpt>
      <trkpt lat="49.33435" lon="1.24734">
        <ele>18</ele>
        <time>2012-04-24T13:29:07Z</time>
      </trkpt>
      <trkpt lat="49.33439" lon="1.24746">
        <ele>18</ele>
        <time>2012-04-24T13:29:15Z</time>
      </trkpt>
      <trkpt lat="49.33443" lon="1.24761">
        <ele>18</ele>
        <time>2012-04-24T13:29:24Z</time>
      </trkpt>
      <trkpt lat="49.33447" lon="1.24775">
        <ele>18</ele>
        <time>2012-04-24T13:29:33Z</time>
      </trkpt>
      <trkpt lat="49.33451" lon="1.24788">
        <ele>18</ele>
        <time>2012-04-24T13:29:41Z</time>
      </trkpt>
      <trkpt lat="49.33455" lon="1.248">
        <ele>18</ele>
        <time>2012-04-24T13:29:49Z</time>
      </trkpt>
      <trkpt lat="49.3346" lon="1.24813">
        <ele>18</ele>
        <time>2012-04-24T13:29:58Z</time>
      </trkpt>
      <trkpt lat="49.33464" lon="1.24826">
        <ele>18</ele>
        <time>2012-04-24T13:30:06Z</time>
      </trkpt>
      <trkpt lat="49.33468" lon="1.24839">
        <ele>18</ele>
        <time>2012-04-24T13:30:14Z</time>
      </trkpt>
      <trkpt lat="49.33471" lon="1.24853">
        <ele>18</ele>
        <time>2012-04-24T13:30:23Z</time>
      </trkpt>
      <trkpt lat="49.33475" lon="1.24866">
        <ele>18</ele>
        <time>2012-04-24T13:30:32Z</time>
      </trkpt>
      <trkpt lat="49.3348" lon="1.24878">
        <ele>18</ele>
        <time>2012-04-24T13:30:41Z</time>
      </trkpt>
      <trkpt lat="49.33485" lon="1.24892">
        <ele>18</ele>
        <time>2012-04-24T13:30:50Z</time>
      </trkpt>
      <trkpt lat="49.33491" lon="1.24904">
        <ele>18</ele>
        <time>2012-04-24T13:30:59Z</time>
      </trkpt>
      <trkpt lat="49.33495" lon="1.24916">
        <ele>18</ele>
        <time>2012-04-24T13:31:07Z</time>
      </trkpt>
      <trkpt lat="49.33501" lon="1.24928">
        <ele>18</ele>
        <time>2012-04-24T13:31:17Z</time>
      </trkpt>
      <trkpt lat="49.33507" lon="1.2494">
        <ele>18</ele>
        <time>2012-04-24T13:31:26Z</time>
      </trkpt>
      <trkpt lat="49.33512" lon="1.24951">
        <ele>18</ele>
        <time>2012-04-24T13:31:34Z</time>
      </trkpt>
      <trkpt lat="49.33517" lon="1.24963">
        <ele>18</ele>
        <time>2012-04-24T13:31:43Z</time>
      </trkpt>
      <trkpt lat="49.33522" lon="1.24975">
        <ele>18</ele>
        <time>2012-04-24T13:31:51Z</time>
      </trkpt>
      <trkpt lat="49.33528" lon="1.24986">
        <ele>18</ele>
        <time>2012-04-24T13:32:01Z</time>
      </trkpt>
      <trkpt lat="49.33533" lon="1.24999">
        <ele>18</ele>
        <time>2012-04-24T13:32:10Z</time>
      </trkpt>
      <trkpt lat="49.33539" lon="1.25011">
        <ele>18</ele>
        <time>2012-04-24T13:32:19Z</time>
      </trkpt>
      <trkpt lat="49.33545" lon="1.25021">
        <ele>18</ele>
        <time>2012-04-24T13:32:27Z</time>
      </trkpt>
      <trkpt lat="49.33551" lon="1.25032">
        <ele>18</ele>
        <time>2012-04-24T13:32:36Z</time>
      </trkpt>
      <trkpt lat="49.33557" lon="1.25043">
        <ele>18</ele>
        <time>2012-04-24T13:32:44Z</time>
      </trkpt>
      <trkpt lat="49.33561" lon="1.25055">
        <ele>18</ele>
        <time>2012-04-24T13:32:54Z</time>
      </trkpt>
      <trkpt lat="49.33565" lon="1.2507">
        <ele>24</ele>
        <time>2012-04-24T13:33:04Z</time>
      </trkpt>
      <trkpt lat="49.33568" lon="1.25084">
        <ele>24</ele>
        <time>2012-04-24T13:33:14Z</time>
      </trkpt>
      <trkpt lat="49.33572" lon="1.25099">
        <ele>24</ele>
        <time>2012-04-24T13:33:23Z</time>
      </trkpt>
      <trkpt lat="49.33576" lon="1.25111">
        <ele>24</ele>
        <time>2012-04-24T13:33:33Z</time>
      </trkpt>
      <trkpt lat="49.33579" lon="1.25125">
        <ele>24</ele>
        <time>2012-04-24T13:33:42Z</time>
      </trkpt>
      <trkpt lat="49.33585" lon="1.25137">
        <ele>24</ele>
        <time>2012-04-24T13:33:50Z</time>
      </trkpt>
      <trkpt lat="49.3359" lon="1.2515">
        <ele>24</ele>
        <time>2012-04-24T13:33:59Z</time>
      </trkpt>
      <trkpt lat="49.33595" lon="1.25161">
        <ele>24</ele>
        <time>2012-04-24T13:34:07Z</time>
      </trkpt>
      <trkpt lat="49.33599" lon="1.25174">
        <ele>24</ele>
        <time>2012-04-24T13:34:17Z</time>
      </trkpt>
      <trkpt lat="49.33606" lon="1.25184">
        <ele>29</ele>
        <time>2012-04-24T13:34:27Z</time>
      </trkpt>
      <trkpt lat="49.3361" lon="1.25196">
        <ele>29</ele>
        <time>2012-04-24T13:34:38Z</time>
      </trkpt>
      <trkpt lat="49.33617" lon="1.25207">
        <ele>29</ele>
        <time>2012-04-24T13:34:47Z</time>
      </trkpt>
      <trkpt lat="49.33623" lon="1.25219">
        <ele>29</ele>
        <time>2012-04-24T13:34:57Z</time>
      </trkpt>
      <trkpt lat="49.33628" lon="1.25231">
        <ele>29</ele>
        <time>2012-04-24T13:35:05Z</time>
      </trkpt>
      <trkpt lat="49.33633" lon="1.25245">
        <ele>29</ele>
        <time>2012-04-24T13:35:15Z</time>
      </trkpt>
      <trkpt lat="49.33637" lon="1.25258">
        <ele>29</ele>
        <time>2012-04-24T13:35:24Z</time>
      </trkpt>
      <trkpt lat="49.3364" lon="1.25271">
        <ele>29</ele>
        <time>2012-04-24T13:35:35Z</time>
      </trkpt>
      <trkpt lat="49.33637" lon="1.25284">
        <ele>29</ele>
        <time>2012-04-24T13:35:45Z</time>
      </trkpt>
      <trkpt lat="49.3363" lon="1.25293">
        <ele>29</ele>
        <time>2012-04-24T13:35:54Z</time>
      </trkpt>
      <trkpt lat="49.33622" lon="1.25302">
        <ele>29</ele>
        <time>2012-04-24T13:36:05Z</time>
      </trkpt>
      <trkpt lat="49.33615" lon="1.2531">
        <ele>23</ele>
        <time>2012-04-24T13:36:14Z</time>
      </trkpt>
      <trkpt lat="49.33605" lon="1.25317">
        <ele>23</ele>
        <time>2012-04-24T13:36:23Z</time>
      </trkpt>
      <trkpt lat="49.33598" lon="1.25326">
        <ele>23</ele>
        <time>2012-04-24T13:36:33Z</time>
      </trkpt>
      <trkpt lat="49.3359" lon="1.25335">
        <ele>23</ele>
        <time>2012-04-24T13:36:46Z</time>
      </trkpt>
      <trkpt lat="49.33592" lon="1.25349">
        <ele>18</ele>
        <time>2012-04-24T13:37:18Z</time>
      </trkpt>
      <trkpt lat="49.33596" lon="1.25363">
        <ele>18</ele>
        <time>2012-04-24T13:37:27Z</time>
      </trkpt>
      <trkpt lat="49.33599" lon="1.25376">
        <ele>18</ele>
        <time>2012-04-24T13:37:36Z</time>
      </trkpt>
      <trkpt lat="49.33603" lon="1.2539">
        <ele>18</ele>
        <time>2012-04-24T13:37:44Z</time>
      </trkpt>
      <trkpt lat="49.33606" lon="1.25404">
        <ele>18</ele>
        <time>2012-04-24T13:37:53Z</time>
      </trkpt>
      <trkpt lat="49.33609" lon="1.25417">
        <ele>18</ele>
        <time>2012-04-24T13:38:01Z</time>
      </trkpt>
      <trkpt lat="49.3361" lon="1.25433">
        <ele>25</ele>
        <time>2012-04-24T13:38:10Z</time>
      </trkpt>
      <trkpt lat="49.33614" lon="1.25446">
        <ele>25</ele>
        <time>2012-04-24T13:38:18Z</time>
      </trkpt>
      <trkpt lat="49.33617" lon="1.25461">
        <ele>25</ele>
        <time>2012-04-24T13:38:27Z</time>
      </trkpt>
      <trkpt lat="49.33621" lon="1.25475">
        <ele>25</ele>
        <time>2012-04-24T13:38:35Z</time>
      </trkpt>
      <trkpt lat="49.33625" lon="1.25489">
        <ele>25</ele>
        <time>2012-04-24T13:38:43Z</time>
      </trkpt>
      <trkpt lat="49.33629" lon="1.25502">
        <ele>18</ele>
        <time>2012-04-24T13:38:50Z</time>
      </trkpt>
      <trkpt lat="49.3363" lon="1.25517">
        <ele>18</ele>
        <time>2012-04-24T13:38:59Z</time>
      </trkpt>
      <trkpt lat="49.33633" lon="1.25531">
        <ele>18</ele>
        <time>2012-04-24T13:39:07Z</time>
      </trkpt>
      <trkpt lat="49.33636" lon="1.25544">
        <ele>25</ele>
        <time>2012-04-24T13:39:17Z</time>
      </trkpt>
      <trkpt lat="49.33637" lon="1.25558">
        <ele>25</ele>
        <time>2012-04-24T13:39:25Z</time>
      </trkpt>
      <trkpt lat="49.33636" lon="1.25573">
        <ele>25</ele>
        <time>2012-04-24T13:39:34Z</time>
      </trkpt>
      <trkpt lat="49.33634" lon="1.25588">
        <ele>25</ele>
        <time>2012-04-24T13:39:43Z</time>
      </trkpt>
      <trkpt lat="49.33639" lon="1.25602">
        <ele>25</ele>
        <time>2012-04-24T13:39:51Z</time>
      </trkpt>
      <trkpt lat="49.33642" lon="1.25617">
        <ele>25</ele>
        <time>2012-04-24T13:40:00Z</time>
      </trkpt>
      <trkpt lat="49.33644" lon="1.2563">
        <ele>25</ele>
        <time>2012-04-24T13:40:08Z</time>
      </trkpt>
      <trkpt lat="49.33647" lon="1.25645">
        <ele>25</ele>
        <time>2012-04-24T13:40:17Z</time>
      </trkpt>
      <trkpt lat="49.33649" lon="1.25659">
        <ele>25</ele>
        <time>2012-04-24T13:40:27Z</time>
      </trkpt>
      <trkpt lat="49.33651" lon="1.25673">
        <ele>25</ele>
        <time>2012-04-24T13:40:38Z</time>
      </trkpt>
      <trkpt lat="49.33652" lon="1.25688">
        <ele>25</ele>
        <time>2012-04-24T13:40:50Z</time>
      </trkpt>
      <trkpt lat="49.33656" lon="1.25702">
        <ele>25</ele>
        <time>2012-04-24T13:40:58Z</time>
      </trkpt>
      <trkpt lat="49.33659" lon="1.25717">
        <ele>19</ele>
        <time>2012-04-24T13:41:07Z</time>
      </trkpt>
      <trkpt lat="49.33662" lon="1.25731">
        <ele>19</ele>
        <time>2012-04-24T13:41:15Z</time>
      </trkpt>
      <trkpt lat="49.33666" lon="1.25745">
        <ele>19</ele>
        <time>2012-04-24T13:41:24Z</time>
      </trkpt>
      <trkpt lat="49.33669" lon="1.25761">
        <ele>19</ele>
        <time>2012-04-24T13:41:33Z</time>
      </trkpt>
      <trkpt lat="49.33671" lon="1.25776">
        <ele>19</ele>
        <time>2012-04-24T13:41:44Z</time>
      </trkpt>
      <trkpt lat="49.33673" lon="1.25789">
        <ele>19</ele>
        <time>2012-04-24T13:41:52Z</time>
      </trkpt>
      <trkpt lat="49.33676" lon="1.25804">
        <ele>19</ele>
        <time>2012-04-24T13:42:01Z</time>
      </trkpt>
      <trkpt lat="49.33679" lon="1.25818">
        <ele>19</ele>
        <time>2012-04-24T13:42:10Z</time>
      </trkpt>
      <trkpt lat="49.33682" lon="1.25832">
        <ele>19</ele>
        <time>2012-04-24T13:42:18Z</time>
      </trkpt>
      <trkpt lat="49.33685" lon="1.25845">
        <ele>19</ele>
        <time>2012-04-24T13:42:26Z</time>
      </trkpt>
      <trkpt lat="49.3369" lon="1.25859">
        <ele>19</ele>
        <time>2012-04-24T13:42:34Z</time>
      </trkpt>
      <trkpt lat="49.33693" lon="1.25873">
        <ele>19</ele>
        <time>2012-04-24T13:42:43Z</time>
      </trkpt>
      <trkpt lat="49.33695" lon="1.25887">
        <ele>19</ele>
        <time>2012-04-24T13:42:57Z</time>
      </trkpt>
      <trkpt lat="49.33699" lon="1.25901">
        <ele>19</ele>
        <time>2012-04-24T13:43:07Z</time>
      </trkpt>
      <trkpt lat="49.33703" lon="1.25914">
        <ele>19</ele>
        <time>2012-04-24T13:43:24Z</time>
      </trkpt>
      <trkpt lat="49.3371" lon="1.25923">
        <ele>19</ele>
        <time>2012-04-24T13:43:37Z</time>
      </trkpt>
      <trkpt lat="49.33706" lon="1.25936">
        <ele>19</ele>
        <time>2012-04-24T13:44:45Z</time>
      </trkpt>
      <trkpt lat="49.33698" lon="1.25945">
        <ele>19</ele>
        <time>2012-04-24T13:44:55Z</time>
      </trkpt>
      <trkpt lat="49.33694" lon="1.25957">
        <ele>19</ele>
        <time>2012-04-24T13:45:09Z</time>
      </trkpt>
      <trkpt lat="49.33702" lon="1.25965">
        <ele>19</ele>
        <time>2012-04-24T13:45:19Z</time>
      </trkpt>
      <trkpt lat="49.3371" lon="1.25974">
        <ele>19</ele>
        <time>2012-04-24T13:45:29Z</time>
      </trkpt>
      <trkpt lat="49.33719" lon="1.25982">
        <ele>19</ele>
        <time>2012-04-24T13:45:38Z</time>
      </trkpt>
      <trkpt lat="49.33727" lon="1.25991">
        <ele>19</ele>
        <time>2012-04-24T13:45:48Z</time>
      </trkpt>
      <trkpt lat="49.33736" lon="1.25998">
        <ele>19</ele>
        <time>2012-04-24T13:45:57Z</time>
      </trkpt>
      <trkpt lat="49.33744" lon="1.26004">
        <ele>19</ele>
        <time>2012-04-24T13:46:06Z</time>
      </trkpt>
      <trkpt lat="49.33752" lon="1.26011">
        <ele>19</ele>
        <time>2012-04-24T13:46:14Z</time>
      </trkpt>
      <trkpt lat="49.3376" lon="1.26021">
        <ele>19</ele>
        <time>2012-04-24T13:46:23Z</time>
      </trkpt>
      <trkpt lat="49.33768" lon="1.2603">
        <ele>19</ele>
        <time>2012-04-24T13:46:33Z</time>
      </trkpt>
      <trkpt lat="49.33776" lon="1.26038">
        <ele>19</ele>
        <time>2012-04-24T13:46:42Z</time>
      </trkpt>
      <trkpt lat="49.33785" lon="1.26044">
        <ele>19</ele>
        <time>2012-04-24T13:46:51Z</time>
      </trkpt>
      <trkpt lat="49.33795" lon="1.26048">
        <ele>19</ele>
        <time>2012-04-24T13:46:59Z</time>
      </trkpt>
      <trkpt lat="49.33804" lon="1.26052">
        <ele>19</ele>
        <time>2012-04-24T13:47:07Z</time>
      </trkpt>
      <trkpt lat="49.33813" lon="1.26055">
        <ele>19</ele>
        <time>2012-04-24T13:47:17Z</time>
      </trkpt>
      <trkpt lat="49.33822" lon="1.26062">
        <ele>19</ele>
        <time>2012-04-24T13:47:26Z</time>
      </trkpt>
      <trkpt lat="49.33831" lon="1.26068">
        <ele>19</ele>
        <time>2012-04-24T13:47:35Z</time>
      </trkpt>
      <trkpt lat="49.3384" lon="1.26071">
        <ele>19</ele>
        <time>2012-04-24T13:47:44Z</time>
      </trkpt>
      <trkpt lat="49.33848" lon="1.26078">
        <ele>25</ele>
        <time>2012-04-24T13:47:52Z</time>
      </trkpt>
      <trkpt lat="49.33857" lon="1.26081">
        <ele>25</ele>
        <time>2012-04-24T13:48:01Z</time>
      </trkpt>
      <trkpt lat="49.33866" lon="1.26088">
        <ele>25</ele>
        <time>2012-04-24T13:48:11Z</time>
      </trkpt>
      <trkpt lat="49.33874" lon="1.26096">
        <ele>25</ele>
        <time>2012-04-24T13:48:21Z</time>
      </trkpt>
      <trkpt lat="49.33883" lon="1.261">
        <ele>25</ele>
        <time>2012-04-24T13:48:28Z</time>
      </trkpt>
      <trkpt lat="49.33893" lon="1.26105">
        <ele>25</ele>
        <time>2012-04-24T13:48:38Z</time>
      </trkpt>
      <trkpt lat="49.339" lon="1.26113">
        <ele>25</ele>
        <time>2012-04-24T13:48:48Z</time>
      </trkpt>
      <trkpt lat="49.33907" lon="1.26122">
        <ele>34</ele>
        <time>2012-04-24T13:48:58Z</time>
      </trkpt>
      <trkpt lat="49.33916" lon="1.26128">
        <ele>34</ele>
        <time>2012-04-24T13:49:06Z</time>
      </trkpt>
      <trkpt lat="49.33924" lon="1.26134">
        <ele>34</ele>
        <time>2012-04-24T13:49:14Z</time>
      </trkpt>
      <trkpt lat="49.33932" lon="1.26141">
        <ele>34</ele>
        <time>2012-04-24T13:49:23Z</time>
      </trkpt>
      <trkpt lat="49.3394" lon="1.2615">
        <ele>34</ele>
        <time>2012-04-24T13:49:31Z</time>
      </trkpt>
      <trkpt lat="49.33948" lon="1.26159">
        <ele>34</ele>
        <time>2012-04-24T13:49:40Z</time>
      </trkpt>
      <trkpt lat="49.33954" lon="1.26171">
        <ele>34</ele>
        <time>2012-04-24T13:49:50Z</time>
      </trkpt>
      <trkpt lat="49.33959" lon="1.26184">
        <ele>34</ele>
        <time>2012-04-24T13:50:00Z</time>
      </trkpt>
      <trkpt lat="49.33965" lon="1.26196">
        <ele>34</ele>
        <time>2012-04-24T13:50:11Z</time>
      </trkpt>
      <trkpt lat="49.33971" lon="1.26208">
        <ele>34</ele>
        <time>2012-04-24T13:50:21Z</time>
      </trkpt>
      <trkpt lat="49.33977" lon="1.2622">
        <ele>34</ele>
        <time>2012-04-24T13:50:38Z</time>
      </trkpt>
      <trkpt lat="49.33983" lon="1.26231">
        <ele>42</ele>
        <time>2012-04-24T13:50:48Z</time>
      </trkpt>
      <trkpt lat="49.3399" lon="1.2624">
        <ele>42</ele>
        <time>2012-04-24T13:50:57Z</time>
      </trkpt>
      <trkpt lat="49.33999" lon="1.26247">
        <ele>47</ele>
        <time>2012-04-24T13:51:08Z</time>
      </trkpt>
      <trkpt lat="49.34007" lon="1.26255">
        <ele>57</ele>
        <time>2012-04-24T13:51:22Z</time>
      </trkpt>
      <trkpt lat="49.34015" lon="1.26261">
        <ele>67</ele>
        <time>2012-04-24T13:51:33Z</time>
      </trkpt>
      <trkpt lat="49.34024" lon="1.26265">
        <ele>67</ele>
        <time>2012-04-24T13:51:40Z</time>
      </trkpt>
      <trkpt lat="49.34025" lon="1.2625">
        <ele>67</ele>
        <time>2012-04-24T13:52:06Z</time>
      </trkpt>
      <trkpt lat="49.34023" lon="1.26236">
        <ele>67</ele>
        <time>2012-04-24T13:52:17Z</time>
      </trkpt>
      <trkpt lat="49.3402" lon="1.26221">
        <ele>61</ele>
        <time>2012-04-24T13:52:27Z</time>
      </trkpt>
      <trkpt lat="49.34018" lon="1.26207">
        <ele>61</ele>
        <time>2012-04-24T13:52:34Z</time>
      </trkpt>
      <trkpt lat="49.34012" lon="1.26195">
        <ele>61</ele>
        <time>2012-04-24T13:52:42Z</time>
      </trkpt>
      <trkpt lat="49.34008" lon="1.26183">
        <ele>61</ele>
        <time>2012-04-24T13:52:52Z</time>
      </trkpt>
      <trkpt lat="49.34004" lon="1.26169">
        <ele>61</ele>
        <time>2012-04-24T13:53:01Z</time>
      </trkpt>
      <trkpt lat="49.33997" lon="1.2616">
        <ele>61</ele>
        <time>2012-04-24T13:53:11Z</time>
      </trkpt>
      <trkpt lat="49.33993" lon="1.26148">
        <ele>67</ele>
        <time>2012-04-24T13:53:20Z</time>
      </trkpt>
      <trkpt lat="49.33988" lon="1.26136">
        <ele>67</ele>
        <time>2012-04-24T13:53:26Z</time>
      </trkpt>
      <trkpt lat="49.33984" lon="1.26123">
        <ele>67</ele>
        <time>2012-04-24T13:53:38Z</time>
      </trkpt>
      <trkpt lat="49.3398" lon="1.26109">
        <ele>67</ele>
        <time>2012-04-24T13:53:49Z</time>
      </trkpt>
      <trkpt lat="49.33974" lon="1.26097">
        <ele>67</ele>
        <time>2012-04-24T13:53:58Z</time>
      </trkpt>
      <trkpt lat="49.3397" lon="1.26084">
        <ele>67</ele>
        <time>2012-04-24T13:54:07Z</time>
      </trkpt>
      <trkpt lat="49.33964" lon="1.26074">
        <ele>67</ele>
        <time>2012-04-24T13:54:15Z</time>
      </trkpt>
      <trkpt lat="49.33957" lon="1.26064">
        <ele>67</ele>
        <time>2012-04-24T13:54:25Z</time>
      </trkpt>
      <trkpt lat="49.33953" lon="1.26052">
        <ele>67</ele>
        <time>2012-04-24T13:54:36Z</time>
      </trkpt>
      <trkpt lat="49.33948" lon="1.26039">
        <ele>67</ele>
        <time>2012-04-24T13:54:49Z</time>
      </trkpt>
      <trkpt lat="49.33958" lon="1.26041">
        <ele>67</ele>
        <time>2012-04-24T13:55:08Z</time>
      </trkpt>
      <trkpt lat="49.33967" lon="1.26045">
        <ele>73</ele>
        <time>2012-04-24T13:55:20Z</time>
      </trkpt>
      <trkpt lat="49.33976" lon="1.26053">
        <ele>79</ele>
        <time>2012-04-24T13:55:32Z</time>
      </trkpt>
      <trkpt lat="49.33983" lon="1.26062">
        <ele>79</ele>
        <time>2012-04-24T13:55:42Z</time>
      </trkpt>
      <trkpt lat="49.3399" lon="1.26072">
        <ele>79</ele>
        <time>2012-04-24T13:55:54Z</time>
      </trkpt>
      <trkpt lat="49.33998" lon="1.26079">
        <ele>79</ele>
        <time>2012-04-24T13:56:05Z</time>
      </trkpt>
      <trkpt lat="49.34008" lon="1.26082">
        <ele>79</ele>
        <time>2012-04-24T13:56:13Z</time>
      </trkpt>
      <trkpt lat="49.34017" lon="1.26089">
        <ele>79</ele>
        <time>2012-04-24T13:56:22Z</time>
      </trkpt>
      <trkpt lat="49.34024" lon="1.26098">
        <ele>79</ele>
        <time>2012-04-24T13:56:34Z</time>
      </trkpt>
      <trkpt lat="49.34032" lon="1.26104">
        <ele>79</ele>
        <time>2012-04-24T13:56:46Z</time>
      </trkpt>
      <trkpt lat="49.34041" lon="1.26111">
        <ele>85</ele>
        <time>2012-04-24T13:56:59Z</time>
      </trkpt>
      <trkpt lat="49.34049" lon="1.26118">
        <ele>85</ele>
        <time>2012-04-24T13:57:10Z</time>
      </trkpt>
      <trkpt lat="49.34057" lon="1.26126">
        <ele>85</ele>
        <time>2012-04-24T13:57:22Z</time>
      </trkpt>
      <trkpt lat="49.34067" lon="1.26132">
        <ele>85</ele>
        <time>2012-04-24T13:57:30Z</time>
      </trkpt>
      <trkpt lat="49.34073" lon="1.26142">
        <ele>85</ele>
        <time>2012-04-24T13:57:44Z</time>
      </trkpt>
      <trkpt lat="49.34081" lon="1.26149">
        <ele>93</ele>
        <time>2012-04-24T13:57:56Z</time>
      </trkpt>
      <trkpt lat="49.3409" lon="1.26153">
        <ele>93</ele>
        <time>2012-04-24T13:58:06Z</time>
      </trkpt>
      <trkpt lat="49.34099" lon="1.26158">
        <ele>93</ele>
        <time>2012-04-24T13:58:16Z</time>
      </trkpt>
      <trkpt lat="49.34109" lon="1.2616">
        <ele>93</ele>
        <time>2012-04-24T13:58:26Z</time>
      </trkpt>
      <trkpt lat="49.34118" lon="1.26166">
        <ele>93</ele>
        <time>2012-04-24T13:58:36Z</time>
      </trkpt>
      <trkpt lat="49.34125" lon="1.26175">
        <ele>93</ele>
        <time>2012-04-24T13:58:48Z</time>
      </trkpt>
      <trkpt lat="49.34133" lon="1.26182">
        <ele>93</ele>
        <time>2012-04-24T13:58:58Z</time>
      </trkpt>
      <trkpt lat="49.34142" lon="1.26185">
        <ele>93</ele>
        <time>2012-04-24T13:59:09Z</time>
      </trkpt>
      <trkpt lat="49.3415" lon="1.26192">
        <ele>93</ele>
        <time>2012-04-24T13:59:22Z</time>
      </trkpt>
      <trkpt lat="49.34159" lon="1.26196">
        <ele>99</ele>
        <time>2012-04-24T13:59:32Z</time>
      </trkpt>
      <trkpt lat="49.34169" lon="1.26195">
        <ele>99</ele>
        <time>2012-04-24T13:59:43Z</time>
      </trkpt>
      <trkpt lat="49.34179" lon="1.26198">
        <ele>99</ele>
        <time>2012-04-24T13:59:51Z</time>
      </trkpt>
      <trkpt lat="49.34189" lon="1.26196">
        <ele>99</ele>
        <time>2012-04-24T14:00:01Z</time>
      </trkpt>
      <trkpt lat="49.34197" lon="1.262">
        <ele>99</ele>
        <time>2012-04-24T14:00:15Z</time>
      </trkpt>
      <trkpt lat="49.34207" lon="1.262">
        <ele>106</ele>
        <time>2012-04-24T14:00:25Z</time>
      </trkpt>
      <trkpt lat="49.34217" lon="1.26199">
        <ele>106</ele>
        <time>2012-04-24T14:00:35Z</time>
      </trkpt>
      <trkpt lat="49.34227" lon="1.262">
        <ele>106</ele>
        <time>2012-04-24T14:00:49Z</time>
      </trkpt>
      <trkpt lat="49.34236" lon="1.262">
        <ele>106</ele>
        <time>2012-04-24T14:01:01Z</time>
      </trkpt>
      <trkpt lat="49.34246" lon="1.26199">
        <ele>106</ele>
        <time>2012-04-24T14:01:09Z</time>
      </trkpt>
      <trkpt lat="49.34256" lon="1.26201">
        <ele>106</ele>
        <time>2012-04-24T14:01:19Z</time>
      </trkpt>
      <trkpt lat="49.34264" lon="1.26197">
        <ele>96</ele>
        <time>2012-04-24T14:01:47Z</time>
      </trkpt>
      <trkpt lat="49.34257" lon="1.26207">
        <ele>108</ele>
        <time>2012-04-24T14:05:08Z</time>
      </trkpt>
      <trkpt lat="49.34248" lon="1.26203">
        <ele>108</ele>
        <time>2012-04-24T14:05:17Z</time>
      </trkpt>
      <trkpt lat="49.34258" lon="1.26202">
        <ele>108</ele>
        <time>2012-04-24T14:05:38Z</time>
      </trkpt>
      <trkpt lat="49.34263" lon="1.26189">
        <ele>93</ele>
        <time>2012-04-24T14:05:53Z</time>
      </trkpt>
      <trkpt lat="49.34272" lon="1.26186">
        <ele>93</ele>
        <time>2012-04-24T14:05:59Z</time>
      </trkpt>
      <trkpt lat="49.34263" lon="1.26192">
        <ele>93</ele>
        <time>2012-04-24T14:06:15Z</time>
      </trkpt>
      <trkpt lat="49.34272" lon="1.26198">
        <ele>111</ele>
        <time>2012-04-24T14:06:44Z</time>
      </trkpt>
      <trkpt lat="49.34264" lon="1.2619">
        <ele>102</ele>
        <time>2012-04-24T14:07:43Z</time>
      </trkpt>
      <trkpt lat="49.34256" lon="1.262">
        <ele>102</ele>
        <time>2012-04-24T14:08:39Z</time>
      </trkpt>
      <trkpt lat="49.34265" lon="1.26192">
        <ele>97</ele>
        <time>2012-04-24T14:09:03Z</time>
      </trkpt>
      <trkpt lat="49.34256" lon="1.26184">
        <ele>117</ele>
        <time>2012-04-24T14:10:09Z</time>
      </trkpt>
      <trkpt lat="49.34263" lon="1.26194">
        <ele>101</ele>
        <time>2012-04-24T14:12:18Z</time>
      </trkpt>
      <trkpt lat="49.34272" lon="1.26189">
        <ele>101</ele>
        <time>2012-04-24T14:12:24Z</time>
      </trkpt>
      <trkpt lat="49.34281" lon="1.26184">
        <ele>94</ele>
        <time>2012-04-24T14:12:33Z</time>
      </trkpt>
      <trkpt lat="49.3429" lon="1.26187">
        <ele>94</ele>
        <time>2012-04-24T14:12:41Z</time>
      </trkpt>
      <trkpt lat="49.343" lon="1.26184">
        <ele>94</ele>
        <time>2012-04-24T14:12:53Z</time>
      </trkpt>
      <trkpt lat="49.34308" lon="1.26187">
        <ele>103</ele>
        <time>2012-04-24T14:13:07Z</time>
      </trkpt>
      <trkpt lat="49.34317" lon="1.26184">
        <ele>103</ele>
        <time>2012-04-24T14:13:17Z</time>
      </trkpt>
      <trkpt lat="49.34327" lon="1.26184">
        <ele>103</ele>
        <time>2012-04-24T14:13:27Z</time>
      </trkpt>
      <trkpt lat="49.34336" lon="1.2618">
        <ele>110</ele>
        <time>2012-04-24T14:13:38Z</time>
      </trkpt>
      <trkpt lat="49.34346" lon="1.26178">
        <ele>110</ele>
        <time>2012-04-24T14:13:46Z</time>
      </trkpt>
      <trkpt lat="49.34355" lon="1.26177">
        <ele>110</ele>
        <time>2012-04-24T14:13:54Z</time>
      </trkpt>
      <trkpt lat="49.34365" lon="1.26175">
        <ele>110</ele>
        <time>2012-04-24T14:14:05Z</time>
      </trkpt>
      <trkpt lat="49.34375" lon="1.26177">
        <ele>110</ele>
        <time>2012-04-24T14:14:14Z</time>
      </trkpt>
      <trkpt lat="49.34385" lon="1.26174">
        <ele>110</ele>
        <time>2012-04-24T14:14:27Z</time>
      </trkpt>
      <trkpt lat="49.34395" lon="1.26177">
        <ele>110</ele>
        <time>2012-04-24T14:14:38Z</time>
      </trkpt>
      <trkpt lat="49.34404" lon="1.26175">
        <ele>110</ele>
        <time>2012-04-24T14:14:49Z</time>
      </trkpt>
      <trkpt lat="49.34413" lon="1.26171">
        <ele>110</ele>
        <time>2012-04-24T14:14:56Z</time>
      </trkpt>
      <trkpt lat="49.34423" lon="1.26167">
        <ele>110</ele>
        <time>2012-04-24T14:15:08Z</time>
      </trkpt>
      <trkpt lat="49.3443" lon="1.26158">
        <ele>117</ele>
        <time>2012-04-24T14:15:21Z</time>
      </trkpt>
      <trkpt lat="49.34439" lon="1.2615">
        <ele>117</ele>
        <time>2012-04-24T14:15:29Z</time>
      </trkpt>
      <trkpt lat="49.34448" lon="1.26142">
        <ele>123</ele>
        <time>2012-04-24T14:15:45Z</time>
      </trkpt>
      <trkpt lat="49.34457" lon="1.26135">
        <ele>123</ele>
        <time>2012-04-24T14:15:51Z</time>
      </trkpt>
      <trkpt lat="49.34467" lon="1.2613">
        <ele>123</ele>
        <time>2012-04-24T14:16:01Z</time>
      </trkpt>
      <trkpt lat="49.34474" lon="1.26122">
        <ele>123</ele>
        <time>2012-04-24T14:16:11Z</time>
      </trkpt>
      <trkpt lat="49.34484" lon="1.26118">
        <ele>123</ele>
        <time>2012-04-24T14:16:23Z</time>
      </trkpt>
      <trkpt lat="49.34495" lon="1.26115">
        <ele>123</ele>
        <time>2012-04-24T14:16:36Z</time>
      </trkpt>
      <trkpt lat="49.34506" lon="1.26117">
        <ele>123</ele>
        <time>2012-04-24T14:16:42Z</time>
      </trkpt>
      <trkpt lat="49.34515" lon="1.26119">
        <ele>123</ele>
        <time>2012-04-24T14:16:46Z</time>
      </trkpt>
      <trkpt lat="49.34525" lon="1.26123">
        <ele>123</ele>
        <time>2012-04-24T14:16:54Z</time>
      </trkpt>
      <trkpt lat="49.34534" lon="1.26126">
        <ele>123</ele>
        <time>2012-04-24T14:17:07Z</time>
      </trkpt>
      <trkpt lat="49.34543" lon="1.26128">
        <ele>123</ele>
        <time>2012-04-24T14:17:19Z</time>
      </trkpt>
      <trkpt lat="49.34553" lon="1.26134">
        <ele>123</ele>
        <time>2012-04-24T14:17:30Z</time>
      </trkpt>
      <trkpt lat="49.34563" lon="1.2614">
        <ele>123</ele>
        <time>2012-04-24T14:17:40Z</time>
      </trkpt>
      <trkpt lat="49.34571" lon="1.26145">
        <ele>123</ele>
        <time>2012-04-24T14:17:50Z</time>
      </trkpt>
      <trkpt lat="49.34581" lon="1.26147">
        <ele>123</ele>
        <time>2012-04-24T14:18:02Z</time>
      </trkpt>
      <trkpt lat="49.34591" lon="1.2615">
        <ele>130</ele>
        <time>2012-04-24T14:18:14Z</time>
      </trkpt>
      <trkpt lat="49.34599" lon="1.26155">
        <ele>130</ele>
        <time>2012-04-24T14:18:24Z</time>
      </trkpt>
      <trkpt lat="49.34608" lon="1.26161">
        <ele>130</ele>
        <time>2012-04-24T14:18:33Z</time>
      </trkpt>
      <trkpt lat="49.34618" lon="1.26168">
        <ele>130</ele>
        <time>2012-04-24T14:18:44Z</time>
      </trkpt>
      <trkpt lat="49.34626" lon="1.26175">
        <ele>130</ele>
        <time>2012-04-24T14:18:53Z</time>
      </trkpt>
      <trkpt lat="49.34635" lon="1.26181">
        <ele>130</ele>
        <time>2012-04-24T14:19:02Z</time>
      </trkpt>
      <trkpt lat="49.34643" lon="1.26185">
        <ele>130</ele>
        <time>2012-04-24T14:19:10Z</time>
      </trkpt>
      <trkpt lat="49.34651" lon="1.26194">
        <ele>137</ele>
        <time>2012-04-24T14:19:20Z</time>
      </trkpt>
      <trkpt lat="49.3466" lon="1.26201">
        <ele>137</ele>
        <time>2012-04-24T14:19:30Z</time>
      </trkpt>
      <trkpt lat="49.34669" lon="1.26205">
        <ele>137</ele>
        <time>2012-04-24T14:19:38Z</time>
      </trkpt>
      <trkpt lat="49.34678" lon="1.26212">
        <ele>137</ele>
        <time>2012-04-24T14:19:46Z</time>
      </trkpt>
      <trkpt lat="49.34685" lon="1.26221">
        <ele>137</ele>
        <time>2012-04-24T14:19:55Z</time>
      </trkpt>
      <trkpt lat="49.34693" lon="1.26229">
        <ele>137</ele>
        <time>2012-04-24T14:20:04Z</time>
      </trkpt>
      <trkpt lat="49.34702" lon="1.26237">
        <ele>137</ele>
        <time>2012-04-24T14:20:15Z</time>
      </trkpt>
      <trkpt lat="49.3471" lon="1.26243">
        <ele>137</ele>
        <time>2012-04-24T14:20:25Z</time>
      </trkpt>
      <trkpt lat="49.34719" lon="1.26249">
        <ele>137</ele>
        <time>2012-04-24T14:20:34Z</time>
      </trkpt>
      <trkpt lat="49.34727" lon="1.26256">
        <ele>137</ele>
        <time>2012-04-24T14:20:42Z</time>
      </trkpt>
      <trkpt lat="49.34736" lon="1.26263">
        <ele>137</ele>
        <time>2012-04-24T14:20:50Z</time>
      </trkpt>
      <trkpt lat="49.34744" lon="1.2627">
        <ele>137</ele>
        <time>2012-04-24T14:20:59Z</time>
      </trkpt>
      <trkpt lat="49.34752" lon="1.26278">
        <ele>137</ele>
        <time>2012-04-24T14:21:08Z</time>
      </trkpt>
      <trkpt lat="49.3476" lon="1.26284">
        <ele>137</ele>
        <time>2012-04-24T14:21:16Z</time>
      </trkpt>
      <trkpt lat="49.34769" lon="1.2629">
        <ele>137</ele>
        <time>2012-04-24T14:21:25Z</time>
      </trkpt>
      <trkpt lat="49.34777" lon="1.26296">
        <ele>137</ele>
        <time>2012-04-24T14:21:34Z</time>
      </trkpt>
      <trkpt lat="49.34786" lon="1.26301">
        <ele>137</ele>
        <time>2012-04-24T14:21:44Z</time>
      </trkpt>
      <trkpt lat="49.34795" lon="1.26305">
        <ele>137</ele>
        <time>2012-04-24T14:21:51Z</time>
      </trkpt>
      <trkpt lat="49.34804" lon="1.26309">
        <ele>137</ele>
        <time>2012-04-24T14:22:00Z</time>
      </trkpt>
      <trkpt lat="49.34813" lon="1.26312">
        <ele>137</ele>
        <time>2012-04-24T14:22:10Z</time>
      </trkpt>
      <trkpt lat="49.34823" lon="1.26315">
        <ele>137</ele>
        <time>2012-04-24T14:22:21Z</time>
      </trkpt>
      <trkpt lat="49.34832" lon="1.26319">
        <ele>137</ele>
        <time>2012-04-24T14:22:30Z</time>
      </trkpt>
      <trkpt lat="49.34842" lon="1.2632">
        <ele>132</ele>
        <time>2012-04-24T14:22:40Z</time>
      </trkpt>
      <trkpt lat="49.34852" lon="1.26319">
        <ele>132</ele>
        <time>2012-04-24T14:23:40Z</time>
      </trkpt>
      <trkpt lat="49.34861" lon="1.26323">
        <ele>132</ele>
        <time>2012-04-24T14:23:50Z</time>
      </trkpt>
      <trkpt lat="49.34871" lon="1.26325">
        <ele>132</ele>
        <time>2012-04-24T14:23:59Z</time>
      </trkpt>
      <trkpt lat="49.34881" lon="1.26327">
        <ele>132</ele>
        <time>2012-04-24T14:24:08Z</time>
      </trkpt>
      <trkpt lat="49.3489" lon="1.26328">
        <ele>132</ele>
        <time>2012-04-24T14:24:16Z</time>
      </trkpt>
      <trkpt lat="49.349" lon="1.2633">
        <ele>132</ele>
        <time>2012-04-24T14:24:25Z</time>
      </trkpt>
      <trkpt lat="49.34911" lon="1.26332">
        <ele>132</ele>
        <time>2012-04-24T14:24:33Z</time>
      </trkpt>
      <trkpt lat="49.34921" lon="1.26332">
        <ele>132</ele>
        <time>2012-04-24T14:24:39Z</time>
      </trkpt>
      <trkpt lat="49.3493" lon="1.26333">
        <ele>132</ele>
        <time>2012-04-24T14:24:47Z</time>
      </trkpt>
      <trkpt lat="49.3494" lon="1.26336">
        <ele>132</ele>
        <time>2012-04-24T14:24:55Z</time>
      </trkpt>
      <trkpt lat="49.3495" lon="1.26336">
        <ele>132</ele>
        <time>2012-04-24T14:25:03Z</time>
      </trkpt>
      <trkpt lat="49.3496" lon="1.26337">
        <ele>132</ele>
        <time>2012-04-24T14:25:11Z</time>
      </trkpt>
      <trkpt lat="49.3497" lon="1.26339">
        <ele>132</ele>
        <time>2012-04-24T14:25:19Z</time>
      </trkpt>
      <trkpt lat="49.34979" lon="1.26341">
        <ele>132</ele>
        <time>2012-04-24T14:25:27Z</time>
      </trkpt>
      <trkpt lat="49.34989" lon="1.26344">
        <ele>132</ele>
        <time>2012-04-24T14:25:36Z</time>
      </trkpt>
      <trkpt lat="49.34998" lon="1.26345">
        <ele>132</ele>
        <time>2012-04-24T14:25:44Z</time>
      </trkpt>
      <trkpt lat="49.35007" lon="1.26346">
        <ele>132</ele>
        <time>2012-04-24T14:25:51Z</time>
      </trkpt>
      <trkpt lat="49.35018" lon="1.26347">
        <ele>132</ele>
        <time>2012-04-24T14:25:58Z</time>
      </trkpt>
      <trkpt lat="49.35027" lon="1.26348">
        <ele>132</ele>
        <time>2012-04-24T14:26:05Z</time>
      </trkpt>
      <trkpt lat="49.35037" lon="1.26349">
        <ele>132</ele>
        <time>2012-04-24T14:26:13Z</time>
      </trkpt>
      <trkpt lat="49.35047" lon="1.26351">
        <ele>132</ele>
        <time>2012-04-24T14:26:20Z</time>
      </trkpt>
      <trkpt lat="49.35057" lon="1.26353">
        <ele>132</ele>
        <time>2012-04-24T14:26:29Z</time>
      </trkpt>
      <trkpt lat="49.35067" lon="1.26355">
        <ele>132</ele>
        <time>2012-04-24T14:26:37Z</time>
      </trkpt>
      <trkpt lat="49.35076" lon="1.26355">
        <ele>127</ele>
        <time>2012-04-24T14:26:43Z</time>
      </trkpt>
      <trkpt lat="49.35085" lon="1.26356">
        <ele>127</ele>
        <time>2012-04-24T14:26:50Z</time>
      </trkpt>
      <trkpt lat="49.35096" lon="1.26359">
        <ele>127</ele>
        <time>2012-04-24T14:26:58Z</time>
      </trkpt>
      <trkpt lat="49.35106" lon="1.26361">
        <ele>127</ele>
        <time>2012-04-24T14:27:07Z</time>
      </trkpt>
      <trkpt lat="49.35116" lon="1.26361">
        <ele>127</ele>
        <time>2012-04-24T14:27:14Z</time>
      </trkpt>
      <trkpt lat="49.35126" lon="1.26362">
        <ele>127</ele>
        <time>2012-04-24T14:27:22Z</time>
      </trkpt>
      <trkpt lat="49.35136" lon="1.26363">
        <ele>127</ele>
        <time>2012-04-24T14:27:30Z</time>
      </trkpt>
      <trkpt lat="49.35145" lon="1.26363">
        <ele>127</ele>
        <time>2012-04-24T14:27:37Z</time>
      </trkpt>
      <trkpt lat="49.35155" lon="1.26365">
        <ele>127</ele>
        <time>2012-04-24T14:27:44Z</time>
      </trkpt>
      <trkpt lat="49.35165" lon="1.26367">
        <ele>127</ele>
        <time>2012-04-24T14:27:51Z</time>
      </trkpt>
      <trkpt lat="49.35175" lon="1.26368">
        <ele>127</ele>
        <time>2012-04-24T14:27:58Z</time>
      </trkpt>
      <trkpt lat="49.35183" lon="1.26371">
        <ele>127</ele>
        <time>2012-04-24T14:28:07Z</time>
      </trkpt>
      <trkpt lat="49.35193" lon="1.26374">
        <ele>127</ele>
        <time>2012-04-24T14:28:15Z</time>
      </trkpt>
      <trkpt lat="49.35203" lon="1.26374">
        <ele>127</ele>
        <time>2012-04-24T14:28:21Z</time>
      </trkpt>
      <trkpt lat="49.35213" lon="1.26374">
        <ele>127</ele>
        <time>2012-04-24T14:28:28Z</time>
      </trkpt>
      <trkpt lat="49.35223" lon="1.26375">
        <ele>127</ele>
        <time>2012-04-24T14:28:35Z</time>
      </trkpt>
      <trkpt lat="49.35232" lon="1.26377">
        <ele>127</ele>
        <time>2012-04-24T14:28:43Z</time>
      </trkpt>
      <trkpt lat="49.35242" lon="1.26377">
        <ele>127</ele>
        <time>2012-04-24T14:28:51Z</time>
      </trkpt>
      <trkpt lat="49.35252" lon="1.26376">
        <ele>127</ele>
        <time>2012-04-24T14:29:00Z</time>
      </trkpt>
      <trkpt lat="49.35261" lon="1.26372">
        <ele>127</ele>
        <time>2012-04-24T14:29:09Z</time>
      </trkpt>
      <trkpt lat="49.3527" lon="1.26366">
        <ele>127</ele>
        <time>2012-04-24T14:29:17Z</time>
      </trkpt>
      <trkpt lat="49.35278" lon="1.26358">
        <ele>127</ele>
        <time>2012-04-24T14:29:26Z</time>
      </trkpt>
      <trkpt lat="49.35285" lon="1.26349">
        <ele>127</ele>
        <time>2012-04-24T14:29:34Z</time>
      </trkpt>
      <trkpt lat="49.35293" lon="1.26338">
        <ele>127</ele>
        <time>2012-04-24T14:29:42Z</time>
      </trkpt>
      <trkpt lat="49.35298" lon="1.26326">
        <ele>127</ele>
        <time>2012-04-24T14:29:51Z</time>
      </trkpt>
      <trkpt lat="49.35305" lon="1.26315">
        <ele>127</ele>
        <time>2012-04-24T14:29:59Z</time>
      </trkpt>
      <trkpt lat="49.35314" lon="1.26308">
        <ele>127</ele>
        <time>2012-04-24T14:30:07Z</time>
      </trkpt>
      <trkpt lat="49.3532" lon="1.26319">
        <ele>135</ele>
        <time>2012-04-24T14:30:29Z</time>
      </trkpt>
      <trkpt lat="49.35325" lon="1.26308">
        <ele>135</ele>
        <time>2012-04-24T14:31:22Z</time>
      </trkpt>
      <trkpt lat="49.35329" lon="1.26295">
        <ele>135</ele>
        <time>2012-04-24T14:31:28Z</time>
      </trkpt>
      <trkpt lat="49.35333" lon="1.26282">
        <ele>135</ele>
        <time>2012-04-24T14:31:34Z</time>
      </trkpt>
      <trkpt lat="49.35339" lon="1.26268">
        <ele>135</ele>
        <time>2012-04-24T14:31:41Z</time>
      </trkpt>
      <trkpt lat="49.35342" lon="1.26253">
        <ele>135</ele>
        <time>2012-04-24T14:31:48Z</time>
      </trkpt>
      <trkpt lat="49.35345" lon="1.26239">
        <ele>130</ele>
        <time>2012-04-24T14:31:55Z</time>
      </trkpt>
      <trkpt lat="49.3535" lon="1.26225">
        <ele>130</ele>
        <time>2012-04-24T14:32:02Z</time>
      </trkpt>
      <trkpt lat="49.35353" lon="1.26212">
        <ele>130</ele>
        <time>2012-04-24T14:32:08Z</time>
      </trkpt>
      <trkpt lat="49.35358" lon="1.26198">
        <ele>130</ele>
        <time>2012-04-24T14:32:15Z</time>
      </trkpt>
      <trkpt lat="49.35364" lon="1.26185">
        <ele>130</ele>
        <time>2012-04-24T14:32:22Z</time>
      </trkpt>
      <trkpt lat="49.35369" lon="1.26173">
        <ele>130</ele>
        <time>2012-04-24T14:32:29Z</time>
      </trkpt>
      <trkpt lat="49.35374" lon="1.2616">
        <ele>130</ele>
        <time>2012-04-24T14:32:36Z</time>
      </trkpt>
      <trkpt lat="49.35379" lon="1.26148">
        <ele>130</ele>
        <time>2012-04-24T14:32:43Z</time>
      </trkpt>
      <trkpt lat="49.35385" lon="1.26137">
        <ele>130</ele>
        <time>2012-04-24T14:32:49Z</time>
      </trkpt>
      <trkpt lat="49.35389" lon="1.26124">
        <ele>130</ele>
        <time>2012-04-24T14:32:56Z</time>
      </trkpt>
      <trkpt lat="49.35394" lon="1.26111">
        <ele>130</ele>
        <time>2012-04-24T14:33:03Z</time>
      </trkpt>
      <trkpt lat="49.35401" lon="1.261">
        <ele>130</ele>
        <time>2012-04-24T14:33:10Z</time>
      </trkpt>
      <trkpt lat="49.35406" lon="1.26088">
        <ele>130</ele>
        <time>2012-04-24T14:33:18Z</time>
      </trkpt>
      <trkpt lat="49.35412" lon="1.26077">
        <ele>130</ele>
        <time>2012-04-24T14:33:25Z</time>
      </trkpt>
      <trkpt lat="49.35419" lon="1.26065">
        <ele>130</ele>
        <time>2012-04-24T14:33:33Z</time>
      </trkpt>
      <trkpt lat="49.35425" lon="1.26054">
        <ele>130</ele>
        <time>2012-04-24T14:33:41Z</time>
      </trkpt>
      <trkpt lat="49.35433" lon="1.26048">
        <ele>130</ele>
        <time>2012-04-24T14:33:48Z</time>
      </trkpt>
      <trkpt lat="49.3544" lon="1.26037">
        <ele>130</ele>
        <time>2012-04-24T14:33:57Z</time>
      </trkpt>
      <trkpt lat="49.35448" lon="1.26028">
        <ele>130</ele>
        <time>2012-04-24T14:34:05Z</time>
      </trkpt>
      <trkpt lat="49.35457" lon="1.26022">
        <ele>130</ele>
        <time>2012-04-24T14:34:12Z</time>
      </trkpt>
      <trkpt lat="49.35465" lon="1.26016">
        <ele>135</ele>
        <time>2012-04-24T14:34:19Z</time>
      </trkpt>
      <trkpt lat="49.35473" lon="1.26009">
        <ele>135</ele>
        <time>2012-04-24T14:34:27Z</time>
      </trkpt>
      <trkpt lat="49.35481" lon="1.26">
        <ele>135</ele>
        <time>2012-04-24T14:34:36Z</time>
      </trkpt>
      <trkpt lat="49.35486" lon="1.25988">
        <ele>135</ele>
        <time>2012-04-24T14:34:45Z</time>
      </trkpt>
      <trkpt lat="49.35493" lon="1.25978">
        <ele>135</ele>
        <time>2012-04-24T14:34:53Z</time>
      </trkpt>
      <trkpt lat="49.35501" lon="1.2597">
        <ele>135</ele>
        <time>2012-04-24T14:35:01Z</time>
      </trkpt>
      <trkpt lat="49.35504" lon="1.25956">
        <ele>135</ele>
        <time>2012-04-24T14:35:09Z</time>
      </trkpt>
      <trkpt lat="49.35498" lon="1.25945">
        <ele>135</ele>
        <time>2012-04-24T14:35:17Z</time>
      </trkpt>
      <trkpt lat="49.3549" lon="1.25937">
        <ele>135</ele>
        <time>2012-04-24T14:35:26Z</time>
      </trkpt>
      <trkpt lat="49.35482" lon="1.25929">
        <ele>135</ele>
        <time>2012-04-24T14:35:33Z</time>
      </trkpt>
      <trkpt lat="49.35475" lon="1.25917">
        <ele>135</ele>
        <time>2012-04-24T14:35:41Z</time>
      </trkpt>
      <trkpt lat="49.35471" lon="1.25903">
        <ele>135</ele>
        <time>2012-04-24T14:35:49Z</time>
      </trkpt>
      <trkpt lat="49.35469" lon="1.25889">
        <ele>135</ele>
        <time>2012-04-24T14:35:57Z</time>
      </trkpt>
      <trkpt lat="49.35467" lon="1.25874">
        <ele>135</ele>
        <time>2012-04-24T14:36:05Z</time>
      </trkpt>
      <trkpt lat="49.35467" lon="1.25858">
        <ele>135</ele>
        <time>2012-04-24T14:36:13Z</time>
      </trkpt>
      <trkpt lat="49.35469" lon="1.25843">
        <ele>141</ele>
        <time>2012-04-24T14:36:21Z</time>
      </trkpt>
      <trkpt lat="49.35473" lon="1.25831">
        <ele>141</ele>
        <time>2012-04-24T14:36:30Z</time>
      </trkpt>
      <trkpt lat="49.3548" lon="1.25821">
        <ele>141</ele>
        <time>2012-04-24T14:36:37Z</time>
      </trkpt>
      <trkpt lat="49.35487" lon="1.2581">
        <ele>141</ele>
        <time>2012-04-24T14:36:44Z</time>
      </trkpt>
      <trkpt lat="49.35494" lon="1.25801">
        <ele>141</ele>
        <time>2012-04-24T14:36:52Z</time>
      </trkpt>
      <trkpt lat="49.35502" lon="1.25793">
        <ele>141</ele>
        <time>2012-04-24T14:36:59Z</time>
      </trkpt>
      <trkpt lat="49.3551" lon="1.25786">
        <ele>141</ele>
        <time>2012-04-24T14:37:06Z</time>
      </trkpt>
      <trkpt lat="49.35519" lon="1.25778">
        <ele>141</ele>
        <time>2012-04-24T14:37:14Z</time>
      </trkpt>
      <trkpt lat="49.35526" lon="1.25768">
        <ele>141</ele>
        <time>2012-04-24T14:37:23Z</time>
      </trkpt>
      <trkpt lat="49.35533" lon="1.25758">
        <ele>141</ele>
        <time>2012-04-24T14:37:32Z</time>
      </trkpt>
      <trkpt lat="49.3554" lon="1.25749">
        <ele>141</ele>
        <time>2012-04-24T14:37:39Z</time>
      </trkpt>
      <trkpt lat="49.35547" lon="1.25739">
        <ele>141</ele>
        <time>2012-04-24T14:37:48Z</time>
      </trkpt>
      <trkpt lat="49.35554" lon="1.2573">
        <ele>141</ele>
        <time>2012-04-24T14:37:59Z</time>
      </trkpt>
      <trkpt lat="49.35563" lon="1.25722">
        <ele>141</ele>
        <time>2012-04-24T14:38:07Z</time>
      </trkpt>
      <trkpt lat="49.35571" lon="1.25715">
        <ele>141</ele>
        <time>2012-04-24T14:38:16Z</time>
      </trkpt>
      <trkpt lat="49.3558" lon="1.25708">
        <ele>141</ele>
        <time>2012-04-24T14:38:24Z</time>
      </trkpt>
      <trkpt lat="49.35587" lon="1.25699">
        <ele>141</ele>
        <time>2012-04-24T14:38:33Z</time>
      </trkpt>
      <trkpt lat="49.35595" lon="1.2569">
        <ele>141</ele>
        <time>2012-04-24T14:38:40Z</time>
      </trkpt>
      <trkpt lat="49.35604" lon="1.25682">
        <ele>147</ele>
        <time>2012-04-24T14:38:48Z</time>
      </trkpt>
      <trkpt lat="49.35609" lon="1.25669">
        <ele>147</ele>
        <time>2012-04-24T14:38:58Z</time>
      </trkpt>
      <trkpt lat="49.35617" lon="1.2566">
        <ele>147</ele>
        <time>2012-04-24T14:39:06Z</time>
      </trkpt>
      <trkpt lat="49.35625" lon="1.25654">
        <ele>147</ele>
        <time>2012-04-24T14:39:16Z</time>
      </trkpt>
      <trkpt lat="49.35632" lon="1.25645">
        <ele>147</ele>
        <time>2012-04-24T14:39:25Z</time>
      </trkpt>
      <trkpt lat="49.35641" lon="1.25638">
        <ele>147</ele>
        <time>2012-04-24T14:39:39Z</time>
      </trkpt>
      <trkpt lat="49.35647" lon="1.25627">
        <ele>147</ele>
        <time>2012-04-24T14:39:47Z</time>
      </trkpt>
      <trkpt lat="49.35644" lon="1.25613">
        <ele>147</ele>
        <time>2012-04-24T14:39:57Z</time>
      </trkpt>
      <trkpt lat="49.35638" lon="1.25602">
        <ele>147</ele>
        <time>2012-04-24T14:40:13Z</time>
      </trkpt>
      <trkpt lat="49.35643" lon="1.25613">
        <ele>140</ele>
        <time>2012-04-24T14:40:42Z</time>
      </trkpt>
      <trkpt lat="49.35649" lon="1.25625">
        <ele>140</ele>
        <time>2012-04-24T14:40:51Z</time>
      </trkpt>
      <trkpt lat="49.35659" lon="1.25621">
        <ele>140</ele>
        <time>2012-04-24T14:41:16Z</time>
      </trkpt>
      <trkpt lat="49.35668" lon="1.25615">
        <ele>140</ele>
        <time>2012-04-24T14:41:26Z</time>
      </trkpt>
      <trkpt lat="49.35676" lon="1.25607">
        <ele>140</ele>
        <time>2012-04-24T14:41:37Z</time>
      </trkpt>
      <trkpt lat="49.35683" lon="1.25598">
        <ele>140</ele>
        <time>2012-04-24T14:41:46Z</time>
      </trkpt>
      <trkpt lat="49.35692" lon="1.2559">
        <ele>140</ele>
        <time>2012-04-24T14:41:55Z</time>
      </trkpt>
      <trkpt lat="49.357" lon="1.25582">
        <ele>140</ele>
        <time>2012-04-24T14:42:03Z</time>
      </trkpt>
      <trkpt lat="49.35707" lon="1.25572">
        <ele>140</ele>
        <time>2012-04-24T14:42:11Z</time>
      </trkpt>
      <trkpt lat="49.35714" lon="1.25562">
        <ele>140</ele>
        <time>2012-04-24T14:42:19Z</time>
      </trkpt>
      <trkpt lat="49.35722" lon="1.25551">
        <ele>140</ele>
        <time>2012-04-24T14:42:28Z</time>
      </trkpt>
      <trkpt lat="49.3573" lon="1.25542">
        <ele>140</ele>
        <time>2012-04-24T14:42:37Z</time>
      </trkpt>
      <trkpt lat="49.35736" lon="1.25531">
        <ele>140</ele>
        <time>2012-04-24T14:42:46Z</time>
      </trkpt>
      <trkpt lat="49.35743" lon="1.25521">
        <ele>146</ele>
        <time>2012-04-24T14:42:53Z</time>
      </trkpt>
      <trkpt lat="49.3575" lon="1.25512">
        <ele>146</ele>
        <time>2012-04-24T14:43:01Z</time>
      </trkpt>
      <trkpt lat="49.35757" lon="1.25502">
        <ele>154</ele>
        <time>2012-04-24T14:43:10Z</time>
      </trkpt>
      <trkpt lat="49.35763" lon="1.25489">
        <ele>154</ele>
        <time>2012-04-24T14:43:18Z</time>
      </trkpt>
      <trkpt lat="49.3577" lon="1.25479">
        <ele>154</ele>
        <time>2012-04-24T14:43:26Z</time>
      </trkpt>
      <trkpt lat="49.35776" lon="1.25466">
        <ele>148</ele>
        <time>2012-04-24T14:43:34Z</time>
      </trkpt>
      <trkpt lat="49.35783" lon="1.25456">
        <ele>148</ele>
        <time>2012-04-24T14:43:41Z</time>
      </trkpt>
      <trkpt lat="49.3579" lon="1.25445">
        <ele>148</ele>
        <time>2012-04-24T14:43:48Z</time>
      </trkpt>
      <trkpt lat="49.35798" lon="1.25436">
        <ele>148</ele>
        <time>2012-04-24T14:43:57Z</time>
      </trkpt>
      <trkpt lat="49.35805" lon="1.25427">
        <ele>148</ele>
        <time>2012-04-24T14:44:06Z</time>
      </trkpt>
      <trkpt lat="49.35811" lon="1.25417">
        <ele>148</ele>
        <time>2012-04-24T14:44:15Z</time>
      </trkpt>
      <trkpt lat="49.35817" lon="1.25405">
        <ele>148</ele>
        <time>2012-04-24T14:44:24Z</time>
      </trkpt>
      <trkpt lat="49.35824" lon="1.25393">
        <ele>148</ele>
        <time>2012-04-24T14:44:33Z</time>
      </trkpt>
      <trkpt lat="49.35831" lon="1.25384">
        <ele>148</ele>
        <time>2012-04-24T14:44:43Z</time>
      </trkpt>
      <trkpt lat="49.3584" lon="1.25381">
        <ele>155</ele>
        <time>2012-04-24T14:44:51Z</time>
      </trkpt>
      <trkpt lat="49.35848" lon="1.25372">
        <ele>155</ele>
        <time>2012-04-24T14:44:59Z</time>
      </trkpt>
      <trkpt lat="49.35856" lon="1.25364">
        <ele>155</ele>
        <time>2012-04-24T14:45:06Z</time>
      </trkpt>
      <trkpt lat="49.35862" lon="1.25354">
        <ele>155</ele>
        <time>2012-04-24T14:45:14Z</time>
      </trkpt>
      <trkpt lat="49.3587" lon="1.25346">
        <ele>149</ele>
        <time>2012-04-24T14:45:23Z</time>
      </trkpt>
      <trkpt lat="49.35878" lon="1.25337">
        <ele>149</ele>
        <time>2012-04-24T14:45:31Z</time>
      </trkpt>
      <trkpt lat="49.35885" lon="1.25329">
        <ele>149</ele>
        <time>2012-04-24T14:45:38Z</time>
      </trkpt>
      <trkpt lat="49.35893" lon="1.2532">
        <ele>149</ele>
        <time>2012-04-24T14:45:46Z</time>
      </trkpt>
      <trkpt lat="49.35901" lon="1.25311">
        <ele>149</ele>
        <time>2012-04-24T14:45:54Z</time>
      </trkpt>
      <trkpt lat="49.35909" lon="1.25302">
        <ele>149</ele>
        <time>2012-04-24T14:46:03Z</time>
      </trkpt>
      <trkpt lat="49.35916" lon="1.25293">
        <ele>149</ele>
        <time>2012-04-24T14:46:11Z</time>
      </trkpt>
      <trkpt lat="49.35922" lon="1.25283">
        <ele>149</ele>
        <time>2012-04-24T14:46:19Z</time>
      </trkpt>
      <trkpt lat="49.3593" lon="1.25273">
        <ele>149</ele>
        <time>2012-04-24T14:46:28Z</time>
      </trkpt>
      <trkpt lat="49.35937" lon="1.25262">
        <ele>155</ele>
        <time>2012-04-24T14:46:36Z</time>
      </trkpt>
      <trkpt lat="49.35943" lon="1.25249">
        <ele>155</ele>
        <time>2012-04-24T14:46:44Z</time>
      </trkpt>
      <trkpt lat="49.3595" lon="1.2524">
        <ele>155</ele>
        <time>2012-04-24T14:46:51Z</time>
      </trkpt>
      <trkpt lat="49.35956" lon="1.25229">
        <ele>155</ele>
        <time>2012-04-24T14:46:59Z</time>
      </trkpt>
      <trkpt lat="49.35962" lon="1.25218">
        <ele>155</ele>
        <time>2012-04-24T14:47:07Z</time>
      </trkpt>
      <trkpt lat="49.35968" lon="1.25207">
        <ele>155</ele>
        <time>2012-04-24T14:47:15Z</time>
      </trkpt>
      <trkpt lat="49.35975" lon="1.25197">
        <ele>155</ele>
        <time>2012-04-24T14:47:24Z</time>
      </trkpt>
      <trkpt lat="49.35981" lon="1.25187">
        <ele>155</ele>
        <time>2012-04-24T14:47:34Z</time>
      </trkpt>
      <trkpt lat="49.35985" lon="1.25173">
        <ele>155</ele>
        <time>2012-04-24T14:47:42Z</time>
      </trkpt>
      <trkpt lat="49.3599" lon="1.2516">
        <ele>155</ele>
        <time>2012-04-24T14:47:51Z</time>
      </trkpt>
      <trkpt lat="49.35997" lon="1.25151">
        <ele>155</ele>
        <time>2012-04-24T14:47:58Z</time>
      </trkpt>
      <trkpt lat="49.36004" lon="1.25141">
        <ele>155</ele>
        <time>2012-04-24T14:48:06Z</time>
      </trkpt>
      <trkpt lat="49.36011" lon="1.25131">
        <ele>155</ele>
        <time>2012-04-24T14:48:13Z</time>
      </trkpt>
      <trkpt lat="49.36017" lon="1.25121">
        <ele>155</ele>
        <time>2012-04-24T14:48:20Z</time>
      </trkpt>
      <trkpt lat="49.36025" lon="1.25113">
        <ele>155</ele>
        <time>2012-04-24T14:48:27Z</time>
      </trkpt>
      <trkpt lat="49.36032" lon="1.25102">
        <ele>155</ele>
        <time>2012-04-24T14:48:35Z</time>
      </trkpt>
      <trkpt lat="49.36039" lon="1.25093">
        <ele>155</ele>
        <time>2012-04-24T14:48:44Z</time>
      </trkpt>
      <trkpt lat="49.36047" lon="1.25085">
        <ele>155</ele>
        <time>2012-04-24T14:48:51Z</time>
      </trkpt>
      <trkpt lat="49.36055" lon="1.25079">
        <ele>155</ele>
        <time>2012-04-24T14:48:58Z</time>
      </trkpt>
      <trkpt lat="49.36063" lon="1.25072">
        <ele>155</ele>
        <time>2012-04-24T14:49:06Z</time>
      </trkpt>
      <trkpt lat="49.36071" lon="1.25064">
        <ele>155</ele>
        <time>2012-04-24T14:49:14Z</time>
      </trkpt>
      <trkpt lat="49.36079" lon="1.25055">
        <ele>155</ele>
        <time>2012-04-24T14:49:21Z</time>
      </trkpt>
      <trkpt lat="49.36088" lon="1.25047">
        <ele>155</ele>
        <time>2012-04-24T14:49:29Z</time>
      </trkpt>
      <trkpt lat="49.36095" lon="1.25038">
        <ele>155</ele>
        <time>2012-04-24T14:49:38Z</time>
      </trkpt>
      <trkpt lat="49.36102" lon="1.25029">
        <ele>155</ele>
        <time>2012-04-24T14:49:46Z</time>
      </trkpt>
      <trkpt lat="49.36112" lon="1.25022">
        <ele>155</ele>
        <time>2012-04-24T14:49:54Z</time>
      </trkpt>
      <trkpt lat="49.36121" lon="1.25016">
        <ele>155</ele>
        <time>2012-04-24T14:50:01Z</time>
      </trkpt>
      <trkpt lat="49.36129" lon="1.2501">
        <ele>155</ele>
        <time>2012-04-24T14:50:09Z</time>
      </trkpt>
      <trkpt lat="49.36137" lon="1.25001">
        <ele>155</ele>
        <time>2012-04-24T14:50:17Z</time>
      </trkpt>
      <trkpt lat="49.36145" lon="1.24993">
        <ele>155</ele>
        <time>2012-04-24T14:50:24Z</time>
      </trkpt>
      <trkpt lat="49.36153" lon="1.24983">
        <ele>155</ele>
        <time>2012-04-24T14:50:33Z</time>
      </trkpt>
      <trkpt lat="49.3616" lon="1.24975">
        <ele>155</ele>
        <time>2012-04-24T14:50:40Z</time>
      </trkpt>
      <trkpt lat="49.36168" lon="1.24966">
        <ele>155</ele>
        <time>2012-04-24T14:50:48Z</time>
      </trkpt>
      <trkpt lat="49.36176" lon="1.24958">
        <ele>155</ele>
        <time>2012-04-24T14:50:56Z</time>
      </trkpt>
      <trkpt lat="49.36184" lon="1.24948">
        <ele>155</ele>
        <time>2012-04-24T14:51:05Z</time>
      </trkpt>
      <trkpt lat="49.36192" lon="1.24939">
        <ele>155</ele>
        <time>2012-04-24T14:51:13Z</time>
      </trkpt>
      <trkpt lat="49.36199" lon="1.24929">
        <ele>155</ele>
        <time>2012-04-24T14:51:20Z</time>
      </trkpt>
      <trkpt lat="49.36206" lon="1.24918">
        <ele>155</ele>
        <time>2012-04-24T14:51:28Z</time>
      </trkpt>
      <trkpt lat="49.36213" lon="1.24908">
        <ele>155</ele>
        <time>2012-04-24T14:51:36Z</time>
      </trkpt>
      <trkpt lat="49.36221" lon="1.24899">
        <ele>155</ele>
        <time>2012-04-24T14:51:44Z</time>
      </trkpt>
      <trkpt lat="49.3623" lon="1.24891">
        <ele>155</ele>
        <time>2012-04-24T14:51:52Z</time>
      </trkpt>
      <trkpt lat="49.36238" lon="1.24885">
        <ele>155</ele>
        <time>2012-04-24T14:52:00Z</time>
      </trkpt>
      <trkpt lat="49.36247" lon="1.24878">
        <ele>162</ele>
        <time>2012-04-24T14:52:08Z</time>
      </trkpt>
      <trkpt lat="49.36255" lon="1.24869">
        <ele>162</ele>
        <time>2012-04-24T14:52:15Z</time>
      </trkpt>
      <trkpt lat="49.36261" lon="1.24859">
        <ele>162</ele>
        <time>2012-04-24T14:52:23Z</time>
      </trkpt>
      <trkpt lat="49.36268" lon="1.24847">
        <ele>162</ele>
        <time>2012-04-24T14:52:31Z</time>
      </trkpt>
      <trkpt lat="49.36276" lon="1.24838">
        <ele>156</ele>
        <time>2012-04-24T14:52:39Z</time>
      </trkpt>
      <trkpt lat="49.36284" lon="1.2483">
        <ele>156</ele>
        <time>2012-04-24T14:52:46Z</time>
      </trkpt>
      <trkpt lat="49.36291" lon="1.24821">
        <ele>156</ele>
        <time>2012-04-24T14:52:54Z</time>
      </trkpt>
      <trkpt lat="49.36299" lon="1.24814">
        <ele>156</ele>
        <time>2012-04-24T14:53:01Z</time>
      </trkpt>
      <trkpt lat="49.36308" lon="1.24806">
        <ele>149</ele>
        <time>2012-04-24T14:53:09Z</time>
      </trkpt>
      <trkpt lat="49.36316" lon="1.24796">
        <ele>149</ele>
        <time>2012-04-24T14:53:17Z</time>
      </trkpt>
      <trkpt lat="49.36325" lon="1.24791">
        <ele>149</ele>
        <time>2012-04-24T14:53:23Z</time>
      </trkpt>
      <trkpt lat="49.36332" lon="1.24781">
        <ele>149</ele>
        <time>2012-04-24T14:53:31Z</time>
      </trkpt>
      <trkpt lat="49.3634" lon="1.24773">
        <ele>149</ele>
        <time>2012-04-24T14:53:38Z</time>
      </trkpt>
      <trkpt lat="49.36348" lon="1.24765">
        <ele>149</ele>
        <time>2012-04-24T14:53:46Z</time>
      </trkpt>
      <trkpt lat="49.36356" lon="1.24757">
        <ele>149</ele>
        <time>2012-04-24T14:53:54Z</time>
      </trkpt>
      <trkpt lat="49.36363" lon="1.24747">
        <ele>149</ele>
        <time>2012-04-24T14:54:02Z</time>
      </trkpt>
      <trkpt lat="49.3637" lon="1.24738">
        <ele>149</ele>
        <time>2012-04-24T14:54:11Z</time>
      </trkpt>
      <trkpt lat="49.36379" lon="1.24731">
        <ele>149</ele>
        <time>2012-04-24T14:54:20Z</time>
      </trkpt>
      <trkpt lat="49.36389" lon="1.24726">
        <ele>149</ele>
        <time>2012-04-24T14:54:27Z</time>
      </trkpt>
      <trkpt lat="49.36397" lon="1.24718">
        <ele>149</ele>
        <time>2012-04-24T14:54:35Z</time>
      </trkpt>
      <trkpt lat="49.36405" lon="1.2471">
        <ele>149</ele>
        <time>2012-04-24T14:54:43Z</time>
      </trkpt>
      <trkpt lat="49.36412" lon="1.24701">
        <ele>149</ele>
        <time>2012-04-24T14:54:53Z</time>
      </trkpt>
      <trkpt lat="49.3642" lon="1.24693">
        <ele>149</ele>
        <time>2012-04-24T14:55:01Z</time>
      </trkpt>
      <trkpt lat="49.3643" lon="1.24688">
        <ele>149</ele>
        <time>2012-04-24T14:55:09Z</time>
      </trkpt>
      <trkpt lat="49.36438" lon="1.24681">
        <ele>149</ele>
        <time>2012-04-24T14:55:18Z</time>
      </trkpt>
      <trkpt lat="49.36447" lon="1.24673">
        <ele>149</ele>
        <time>2012-04-24T14:55:26Z</time>
      </trkpt>
      <trkpt lat="49.36456" lon="1.24666">
        <ele>149</ele>
        <time>2012-04-24T14:55:34Z</time>
      </trkpt>
      <trkpt lat="49.36465" lon="1.24664">
        <ele>149</ele>
        <time>2012-04-24T14:55:42Z</time>
      </trkpt>
      <trkpt lat="49.36475" lon="1.2467">
        <ele>149</ele>
        <time>2012-04-24T14:55:50Z</time>
      </trkpt>
      <trkpt lat="49.36483" lon="1.2468">
        <ele>142</ele>
        <time>2012-04-24T14:55:59Z</time>
      </trkpt>
      <trkpt lat="49.36491" lon="1.24688">
        <ele>142</ele>
        <time>2012-04-24T14:56:07Z</time>
      </trkpt>
      <trkpt lat="49.365" lon="1.24696">
        <ele>142</ele>
        <time>2012-04-24T14:56:15Z</time>
      </trkpt>
      <trkpt lat="49.36508" lon="1.24703">
        <ele>142</ele>
        <time>2012-04-24T14:56:23Z</time>
      </trkpt>
      <trkpt lat="49.36517" lon="1.24709">
        <ele>142</ele>
        <time>2012-04-24T14:56:31Z</time>
      </trkpt>
      <trkpt lat="49.36526" lon="1.24714">
        <ele>142</ele>
        <time>2012-04-24T14:56:39Z</time>
      </trkpt>
      <trkpt lat="49.36535" lon="1.24719">
        <ele>142</ele>
        <time>2012-04-24T14:56:47Z</time>
      </trkpt>
      <trkpt lat="49.36544" lon="1.24725">
        <ele>142</ele>
        <time>2012-04-24T14:56:55Z</time>
      </trkpt>
      <trkpt lat="49.36553" lon="1.24729">
        <ele>142</ele>
        <time>2012-04-24T14:57:03Z</time>
      </trkpt>
      <trkpt lat="49.36562" lon="1.24735">
        <ele>142</ele>
        <time>2012-04-24T14:57:11Z</time>
      </trkpt>
      <trkpt lat="49.36572" lon="1.24738">
        <ele>142</ele>
        <time>2012-04-24T14:57:19Z</time>
      </trkpt>
      <trkpt lat="49.36581" lon="1.24741">
        <ele>142</ele>
        <time>2012-04-24T14:57:27Z</time>
      </trkpt>
      <trkpt lat="49.3659" lon="1.24734">
        <ele>142</ele>
        <time>2012-04-24T14:57:36Z</time>
      </trkpt>
      <trkpt lat="49.36596" lon="1.24721">
        <ele>142</ele>
        <time>2012-04-24T14:57:44Z</time>
      </trkpt>
      <trkpt lat="49.36603" lon="1.24709">
        <ele>142</ele>
        <time>2012-04-24T14:57:52Z</time>
      </trkpt>
      <trkpt lat="49.36609" lon="1.24698">
        <ele>142</ele>
        <time>2012-04-24T14:58:00Z</time>
      </trkpt>
      <trkpt lat="49.36615" lon="1.24685">
        <ele>148</ele>
        <time>2012-04-24T14:58:09Z</time>
      </trkpt>
      <trkpt lat="49.36621" lon="1.24674">
        <ele>148</ele>
        <time>2012-04-24T14:58:17Z</time>
      </trkpt>
      <trkpt lat="49.36627" lon="1.24662">
        <ele>148</ele>
        <time>2012-04-24T14:58:25Z</time>
      </trkpt>
      <trkpt lat="49.36633" lon="1.2465">
        <ele>148</ele>
        <time>2012-04-24T14:58:33Z</time>
      </trkpt>
      <trkpt lat="49.36639" lon="1.24639">
        <ele>148</ele>
        <time>2012-04-24T14:58:41Z</time>
      </trkpt>
      <trkpt lat="49.36644" lon="1.24627">
        <ele>148</ele>
        <time>2012-04-24T14:58:49Z</time>
      </trkpt>
      <trkpt lat="49.3665" lon="1.24614">
        <ele>148</ele>
        <time>2012-04-24T14:58:57Z</time>
      </trkpt>
      <trkpt lat="49.36657" lon="1.24604">
        <ele>148</ele>
        <time>2012-04-24T14:59:05Z</time>
      </trkpt>
      <trkpt lat="49.36662" lon="1.24592">
        <ele>148</ele>
        <time>2012-04-24T14:59:13Z</time>
      </trkpt>
      <trkpt lat="49.36668" lon="1.2458">
        <ele>148</ele>
        <time>2012-04-24T14:59:21Z</time>
      </trkpt>
      <trkpt lat="49.36675" lon="1.24569">
        <ele>148</ele>
        <time>2012-04-24T14:59:29Z</time>
      </trkpt>
      <trkpt lat="49.36681" lon="1.24559">
        <ele>153</ele>
        <time>2012-04-24T14:59:37Z</time>
      </trkpt>
      <trkpt lat="49.36687" lon="1.24547">
        <ele>153</ele>
        <time>2012-04-24T14:59:45Z</time>
      </trkpt>
      <trkpt lat="49.36693" lon="1.24535">
        <ele>153</ele>
        <time>2012-04-24T14:59:53Z</time>
      </trkpt>
      <trkpt lat="49.36697" lon="1.24522">
        <ele>153</ele>
        <time>2012-04-24T15:00:01Z</time>
      </trkpt>
      <trkpt lat="49.36703" lon="1.24509">
        <ele>153</ele>
        <time>2012-04-24T15:00:09Z</time>
      </trkpt>
      <trkpt lat="49.3671" lon="1.24499">
        <ele>153</ele>
        <time>2012-04-24T15:00:17Z</time>
      </trkpt>
      <trkpt lat="49.36715" lon="1.24488">
        <ele>153</ele>
        <time>2012-04-24T15:00:25Z</time>
      </trkpt>
      <trkpt lat="49.36722" lon="1.24478">
        <ele>153</ele>
        <time>2012-04-24T15:00:33Z</time>
      </trkpt>
      <trkpt lat="49.36729" lon="1.24467">
        <ele>153</ele>
        <time>2012-04-24T15:00:41Z</time>
      </trkpt>
      <trkpt lat="49.36735" lon="1.24455">
        <ele>158</ele>
        <time>2012-04-24T15:00:49Z</time>
      </trkpt>
      <trkpt lat="49.36742" lon="1.24444">
        <ele>158</ele>
        <time>2012-04-24T15:00:58Z</time>
      </trkpt>
      <trkpt lat="49.36748" lon="1.2443">
        <ele>158</ele>
        <time>2012-04-24T15:01:06Z</time>
      </trkpt>
      <trkpt lat="49.36753" lon="1.24418">
        <ele>158</ele>
        <time>2012-04-24T15:01:14Z</time>
      </trkpt>
      <trkpt lat="49.36758" lon="1.24405">
        <ele>151</ele>
        <time>2012-04-24T15:01:21Z</time>
      </trkpt>
      <trkpt lat="49.36764" lon="1.24393">
        <ele>151</ele>
        <time>2012-04-24T15:01:29Z</time>
      </trkpt>
      <trkpt lat="49.36769" lon="1.24383">
        <ele>151</ele>
        <time>2012-04-24T15:01:37Z</time>
      </trkpt>
      <trkpt lat="49.36775" lon="1.2437">
        <ele>151</ele>
        <time>2012-04-24T15:01:45Z</time>
      </trkpt>
      <trkpt lat="49.36782" lon="1.24359">
        <ele>151</ele>
        <time>2012-04-24T15:01:53Z</time>
      </trkpt>
      <trkpt lat="49.36789" lon="1.24348">
        <ele>151</ele>
        <time>2012-04-24T15:02:01Z</time>
      </trkpt>
      <trkpt lat="49.36795" lon="1.24338">
        <ele>151</ele>
        <time>2012-04-24T15:02:09Z</time>
      </trkpt>
      <trkpt lat="49.36801" lon="1.24325">
        <ele>151</ele>
        <time>2012-04-24T15:02:17Z</time>
      </trkpt>
      <trkpt lat="49.36806" lon="1.24313">
        <ele>151</ele>
        <time>2012-04-24T15:02:25Z</time>
      </trkpt>
      <trkpt lat="49.36812" lon="1.24303">
        <ele>151</ele>
        <time>2012-04-24T15:02:32Z</time>
      </trkpt>
      <trkpt lat="49.36818" lon="1.24291">
        <ele>151</ele>
        <time>2012-04-24T15:02:40Z</time>
      </trkpt>
      <trkpt lat="49.36822" lon="1.24278">
        <ele>151</ele>
        <time>2012-04-24T15:02:47Z</time>
      </trkpt>
      <trkpt lat="49.36827" lon="1.24266">
        <ele>151</ele>
        <time>2012-04-24T15:02:55Z</time>
      </trkpt>
      <trkpt lat="49.36835" lon="1.24256">
        <ele>151</ele>
        <time>2012-04-24T15:03:03Z</time>
      </trkpt>
      <trkpt lat="49.36841" lon="1.24246">
        <ele>151</ele>
        <time>2012-04-24T15:03:10Z</time>
      </trkpt>
      <trkpt lat="49.36846" lon="1.24233">
        <ele>151</ele>
        <time>2012-04-24T15:03:18Z</time>
      </trkpt>
      <trkpt lat="49.36851" lon="1.24221">
        <ele>151</ele>
        <time>2012-04-24T15:03:27Z</time>
      </trkpt>
      <trkpt lat="49.36856" lon="1.24207">
        <ele>151</ele>
        <time>2012-04-24T15:03:35Z</time>
      </trkpt>
      <trkpt lat="49.36861" lon="1.24196">
        <ele>151</ele>
        <time>2012-04-24T15:03:43Z</time>
      </trkpt>
      <trkpt lat="49.36868" lon="1.24186">
        <ele>151</ele>
        <time>2012-04-24T15:03:50Z</time>
      </trkpt>
      <trkpt lat="49.36873" lon="1.24173">
        <ele>151</ele>
        <time>2012-04-24T15:03:57Z</time>
      </trkpt>
      <trkpt lat="49.3688" lon="1.24165">
        <ele>151</ele>
        <time>2012-04-24T15:04:04Z</time>
      </trkpt>
      <trkpt lat="49.36886" lon="1.24154">
        <ele>151</ele>
        <time>2012-04-24T15:04:12Z</time>
      </trkpt>
      <trkpt lat="49.36893" lon="1.24143">
        <ele>151</ele>
        <time>2012-04-24T15:04:20Z</time>
      </trkpt>
      <trkpt lat="49.36897" lon="1.2413">
        <ele>151</ele>
        <time>2012-04-24T15:04:28Z</time>
      </trkpt>
      <trkpt lat="49.36903" lon="1.24116">
        <ele>151</ele>
        <time>2012-04-24T15:04:36Z</time>
      </trkpt>
      <trkpt lat="49.36907" lon="1.24103">
        <ele>151</ele>
        <time>2012-04-24T15:04:44Z</time>
      </trkpt>
      <trkpt lat="49.36913" lon="1.24091">
        <ele>151</ele>
        <time>2012-04-24T15:04:52Z</time>
      </trkpt>
      <trkpt lat="49.36918" lon="1.24079">
        <ele>151</ele>
        <time>2012-04-24T15:05:00Z</time>
      </trkpt>
      <trkpt lat="49.36924" lon="1.24068">
        <ele>151</ele>
        <time>2012-04-24T15:05:07Z</time>
      </trkpt>
      <trkpt lat="49.3693" lon="1.24056">
        <ele>151</ele>
        <time>2012-04-24T15:05:15Z</time>
      </trkpt>
      <trkpt lat="49.36937" lon="1.24044">
        <ele>151</ele>
        <time>2012-04-24T15:05:23Z</time>
      </trkpt>
      <trkpt lat="49.36943" lon="1.24033">
        <ele>151</ele>
        <time>2012-04-24T15:05:31Z</time>
      </trkpt>
      <trkpt lat="49.3695" lon="1.24021">
        <ele>151</ele>
        <time>2012-04-24T15:05:39Z</time>
      </trkpt>
      <trkpt lat="49.36955" lon="1.2401">
        <ele>151</ele>
        <time>2012-04-24T15:05:47Z</time>
      </trkpt>
      <trkpt lat="49.36962" lon="1.23999">
        <ele>151</ele>
        <time>2012-04-24T15:05:55Z</time>
      </trkpt>
      <trkpt lat="49.36968" lon="1.23987">
        <ele>157</ele>
        <time>2012-04-24T15:06:04Z</time>
      </trkpt>
      <trkpt lat="49.36975" lon="1.23977">
        <ele>157</ele>
        <time>2012-04-24T15:06:13Z</time>
      </trkpt>
      <trkpt lat="49.36981" lon="1.23966">
        <ele>164</ele>
        <time>2012-04-24T15:06:21Z</time>
      </trkpt>
      <trkpt lat="49.36987" lon="1.23953">
        <ele>164</ele>
        <time>2012-04-24T15:06:29Z</time>
      </trkpt>
      <trkpt lat="49.36991" lon="1.2394">
        <ele>164</ele>
        <time>2012-04-24T15:06:36Z</time>
      </trkpt>
      <trkpt lat="49.36996" lon="1.23929">
        <ele>164</ele>
        <time>2012-04-24T15:06:44Z</time>
      </trkpt>
      <trkpt lat="49.37002" lon="1.23918">
        <ele>158</ele>
        <time>2012-04-24T15:06:51Z</time>
      </trkpt>
      <trkpt lat="49.37009" lon="1.23906">
        <ele>158</ele>
        <time>2012-04-24T15:06:59Z</time>
      </trkpt>
      <trkpt lat="49.37015" lon="1.23896">
        <ele>158</ele>
        <time>2012-04-24T15:07:06Z</time>
      </trkpt>
      <trkpt lat="49.37018" lon="1.23882">
        <ele>158</ele>
        <time>2012-04-24T15:07:13Z</time>
      </trkpt>
      <trkpt lat="49.37024" lon="1.23871">
        <ele>158</ele>
        <time>2012-04-24T15:07:21Z</time>
      </trkpt>
      <trkpt lat="49.3703" lon="1.23859">
        <ele>152</ele>
        <time>2012-04-24T15:07:29Z</time>
      </trkpt>
      <trkpt lat="49.37037" lon="1.23848">
        <ele>152</ele>
        <time>2012-04-24T15:07:37Z</time>
      </trkpt>
      <trkpt lat="49.37044" lon="1.23838">
        <ele>152</ele>
        <time>2012-04-24T15:07:45Z</time>
      </trkpt>
      <trkpt lat="49.37048" lon="1.23826">
        <ele>152</ele>
        <time>2012-04-24T15:07:53Z</time>
      </trkpt>
      <trkpt lat="49.37053" lon="1.23812">
        <ele>152</ele>
        <time>2012-04-24T15:08:01Z</time>
      </trkpt>
      <trkpt lat="49.3706" lon="1.23801">
        <ele>152</ele>
        <time>2012-04-24T15:08:09Z</time>
      </trkpt>
      <trkpt lat="49.37066" lon="1.23791">
        <ele>152</ele>
        <time>2012-04-24T15:08:17Z</time>
      </trkpt>
      <trkpt lat="49.37073" lon="1.2378">
        <ele>152</ele>
        <time>2012-04-24T15:08:25Z</time>
      </trkpt>
      <trkpt lat="49.37077" lon="1.23767">
        <ele>152</ele>
        <time>2012-04-24T15:08:33Z</time>
      </trkpt>
      <trkpt lat="49.37084" lon="1.23756">
        <ele>152</ele>
        <time>2012-04-24T15:08:41Z</time>
      </trkpt>
      <trkpt lat="49.37089" lon="1.23745">
        <ele>152</ele>
        <time>2012-04-24T15:08:49Z</time>
      </trkpt>
      <trkpt lat="49.37096" lon="1.23735">
        <ele>158</ele>
        <time>2012-04-24T15:08:56Z</time>
      </trkpt>
      <trkpt lat="49.37101" lon="1.23723">
        <ele>158</ele>
        <time>2012-04-24T15:09:04Z</time>
      </trkpt>
      <trkpt lat="49.37106" lon="1.23711">
        <ele>158</ele>
        <time>2012-04-24T15:09:12Z</time>
      </trkpt>
      <trkpt lat="49.37113" lon="1.23701">
        <ele>158</ele>
        <time>2012-04-24T15:09:20Z</time>
      </trkpt>
      <trkpt lat="49.37119" lon="1.23691">
        <ele>158</ele>
        <time>2012-04-24T15:09:29Z</time>
      </trkpt>
      <trkpt lat="49.37123" lon="1.23677">
        <ele>158</ele>
        <time>2012-04-24T15:09:44Z</time>
      </trkpt>
      <trkpt lat="49.37127" lon="1.23663">
        <ele>158</ele>
        <time>2012-04-24T15:09:53Z</time>
      </trkpt>
      <trkpt lat="49.37133" lon="1.23653">
        <ele>151</ele>
        <time>2012-04-24T15:10:01Z</time>
      </trkpt>
      <trkpt lat="49.3714" lon="1.23642">
        <ele>151</ele>
        <time>2012-04-24T15:10:14Z</time>
      </trkpt>
      <trkpt lat="49.37145" lon="1.2363">
        <ele>151</ele>
        <time>2012-04-24T15:10:24Z</time>
      </trkpt>
      <trkpt lat="49.37151" lon="1.23619">
        <ele>151</ele>
        <time>2012-04-24T15:10:33Z</time>
      </trkpt>
      <trkpt lat="49.37157" lon="1.23606">
        <ele>151</ele>
        <time>2012-04-24T15:10:42Z</time>
      </trkpt>
      <trkpt lat="49.37162" lon="1.23595">
        <ele>151</ele>
        <time>2012-04-24T15:10:51Z</time>
      </trkpt>
      <trkpt lat="49.37168" lon="1.23582">
        <ele>151</ele>
        <time>2012-04-24T15:10:59Z</time>
      </trkpt>
      <trkpt lat="49.37175" lon="1.23571">
        <ele>151</ele>
        <time>2012-04-24T15:11:08Z</time>
      </trkpt>
      <trkpt lat="49.3718" lon="1.23559">
        <ele>151</ele>
        <time>2012-04-24T15:11:18Z</time>
      </trkpt>
      <trkpt lat="49.37187" lon="1.23549">
        <ele>151</ele>
        <time>2012-04-24T15:11:26Z</time>
      </trkpt>
      <trkpt lat="49.37194" lon="1.23538">
        <ele>151</ele>
        <time>2012-04-24T15:11:35Z</time>
      </trkpt>
      <trkpt lat="49.372" lon="1.23528">
        <ele>156</ele>
        <time>2012-04-24T15:11:42Z</time>
      </trkpt>
      <trkpt lat="49.37204" lon="1.23515">
        <ele>156</ele>
        <time>2012-04-24T15:11:50Z</time>
      </trkpt>
      <trkpt lat="49.37211" lon="1.23504">
        <ele>156</ele>
        <time>2012-04-24T15:11:59Z</time>
      </trkpt>
      <trkpt lat="49.37218" lon="1.23495">
        <ele>156</ele>
        <time>2012-04-24T15:12:07Z</time>
      </trkpt>
      <trkpt lat="49.37225" lon="1.23485">
        <ele>156</ele>
        <time>2012-04-24T15:12:16Z</time>
      </trkpt>
      <trkpt lat="49.37228" lon="1.23472">
        <ele>156</ele>
        <time>2012-04-24T15:12:24Z</time>
      </trkpt>
      <trkpt lat="49.37233" lon="1.2346">
        <ele>156</ele>
        <time>2012-04-24T15:12:32Z</time>
      </trkpt>
      <trkpt lat="49.37239" lon="1.23447">
        <ele>156</ele>
        <time>2012-04-24T15:12:40Z</time>
      </trkpt>
      <trkpt lat="49.37243" lon="1.23433">
        <ele>156</ele>
        <time>2012-04-24T15:12:47Z</time>
      </trkpt>
      <trkpt lat="49.37249" lon="1.2342">
        <ele>150</ele>
        <time>2012-04-24T15:12:55Z</time>
      </trkpt>
      <trkpt lat="49.37256" lon="1.23409">
        <ele>150</ele>
        <time>2012-04-24T15:13:03Z</time>
      </trkpt>
      <trkpt lat="49.37262" lon="1.23397">
        <ele>150</ele>
        <time>2012-04-24T15:13:12Z</time>
      </trkpt>
      <trkpt lat="49.37268" lon="1.23385">
        <ele>150</ele>
        <time>2012-04-24T15:13:19Z</time>
      </trkpt>
      <trkpt lat="49.37275" lon="1.23376">
        <ele>150</ele>
        <time>2012-04-24T15:13:27Z</time>
      </trkpt>
      <trkpt lat="49.37281" lon="1.23364">
        <ele>150</ele>
        <time>2012-04-24T15:13:36Z</time>
      </trkpt>
      <trkpt lat="49.37285" lon="1.2335">
        <ele>150</ele>
        <time>2012-04-24T15:13:45Z</time>
      </trkpt>
      <trkpt lat="49.37292" lon="1.23339">
        <ele>150</ele>
        <time>2012-04-24T15:13:53Z</time>
      </trkpt>
      <trkpt lat="49.37294" lon="1.23325">
        <ele>150</ele>
        <time>2012-04-24T15:14:01Z</time>
      </trkpt>
      <trkpt lat="49.37292" lon="1.23312">
        <ele>150</ele>
        <time>2012-04-24T15:14:09Z</time>
      </trkpt>
      <trkpt lat="49.37287" lon="1.23299">
        <ele>155</ele>
        <time>2012-04-24T15:14:17Z</time>
      </trkpt>
      <trkpt lat="49.37284" lon="1.23286">
        <ele>155</ele>
        <time>2012-04-24T15:14:25Z</time>
      </trkpt>
      <trkpt lat="49.37283" lon="1.2327">
        <ele>155</ele>
        <time>2012-04-24T15:14:34Z</time>
      </trkpt>
      <trkpt lat="49.37279" lon="1.23258">
        <ele>155</ele>
        <time>2012-04-24T15:14:43Z</time>
      </trkpt>
      <trkpt lat="49.37275" lon="1.23244">
        <ele>155</ele>
        <time>2012-04-24T15:14:53Z</time>
      </trkpt>
      <trkpt lat="49.37279" lon="1.23259">
        <ele>155</ele>
        <time>2012-04-24T15:16:51Z</time>
      </trkpt>
    </trkseg>
  </trk>
</gpx>